Wetterdaten: Dienstag, 11.05.2021
Datum Zeit Temp. Aussen Temp. o. S. Temp +5cm Feuchte Auss Luftdruck Regen Sonnenschein Regendauer Solar Windben Empfang
11.05.2021 00:00 15,8 C 14,4 C 12,3 C 79 % 1008,5 hPa 0,0 l/m 0 min 0 min 0 W/m 0,0 km/h (0 Bft) 100,00 %
11.05.2021 00:02 15,8 C 14,4 C 12,3 C 79 % 1008,4 hPa 0,0 l/m 0 min 0 min 0 W/m 3,2 km/h (1 Bft) 97,06 %
11.05.2021 00:04 15,7 C 14,4 C 12,3 C 79 % 1008,4 hPa 0,0 l/m 0 min 0 min 0 W/m 3,2 km/h (1 Bft) 100,00 %
11.05.2021 00:08 15,6 C 14,4 C 12,3 C 79 % 1008,5 hPa 0,0 l/m 0 min 0 min 0 W/m 3,2 km/h (1 Bft) 100,00 %
11.05.2021 00:10 15,6 C 14,4 C 12,3 C 79 % 1008,6 hPa 0,0 l/m 0 min 0 min 0 W/m 3,2 km/h (1 Bft) 100,00 %
11.05.2021 00:12 15,6 C 14,4 C 12,3 C 79 % 1008,6 hPa 0,0 l/m 0 min 0 min 0 W/m 0,0 km/h (0 Bft) 100,00 %
11.05.2021 00:14 15,5 C 14,4 C 12,3 C 79 % 1008,6 hPa 0,0 l/m 0 min 0 min 0 W/m 3,2 km/h (1 Bft) 100,00 %
11.05.2021 00:16 15,5 C 14,4 C 12,3 C 79 % 1008,6 hPa 0,0 l/m 0 min 0 min 0 W/m 3,2 km/h (1 Bft) 100,00 %
11.05.2021 00:18 15,5 C 14,4 C 12,3 C 79 % 1008,6 hPa 0,0 l/m 0 min 0 min 0 W/m 6,4 km/h (2 Bft) 100,00 %
11.05.2021 00:20 15,4 C 14,4 C 12,3 C 79 % 1008,5 hPa 0,0 l/m 0 min 0 min 0 W/m 6,4 km/h (2 Bft) 100,00 %
11.05.2021 00:22 15,4 C 14,4 C 12,3 C 80 % 1008,6 hPa 0,0 l/m 0 min 0 min 0 W/m 6,4 km/h (2 Bft) 97,87 %
11.05.2021 00:24 15,4 C 14,4 C 12,3 C 80 % 1008,6 hPa 0,0 l/m 0 min 0 min 0 W/m 3,2 km/h (1 Bft) 97,83 %
11.05.2021 00:26 15,3 C 14,4 C 12,3 C 80 % 1008,6 hPa 0,0 l/m 0 min 0 min 0 W/m 6,4 km/h (2 Bft) 100,00 %
11.05.2021 00:28 15,3 C 14,4 C 12,3 C 80 % 1008,6 hPa 0,0 l/m 0 min 0 min 0 W/m 3,2 km/h (1 Bft) 100,00 %
11.05.2021 00:30 15,3 C 14,4 C 11,7 C 80 % 1008,6 hPa 0,0 l/m 0 min 0 min 0 W/m 6,4 km/h (2 Bft) 100,00 %
11.05.2021 00:32 15,3 C 14,4 C 11,7 C 80 % 1008,6 hPa 0,0 l/m 0 min 0 min 0 W/m 6,4 km/h (2 Bft) 97,87 %
11.05.2021 00:34 15,2 C 14,4 C 11,7 C 80 % 1008,6 hPa 0,0 l/m 0 min 0 min 0 W/m 6,4 km/h (2 Bft) 100,00 %
11.05.2021 00:36 15,2 C 14,4 C 11,7 C 80 % 1008,7 hPa 0,0 l/m 0 min 0 min 0 W/m 3,2 km/h (1 Bft) 100,00 %
11.05.2021 00:38 15,2 C 14,4 C 11,7 C 80 % 1008,6 hPa 0,0 l/m 0 min 0 min 0 W/m 6,4 km/h (2 Bft) 100,00 %
11.05.2021 00:40 15,1 C 14,4 C 11,7 C 80 % 1008,6 hPa 0,0 l/m 0 min 0 min 0 W/m 3,2 km/h (1 Bft) 100,00 %
11.05.2021 00:42 15,1 C 14,4 C 11,7 C 80 % 1008,6 hPa 0,0 l/m 0 min 0 min 0 W/m 3,2 km/h (1 Bft) 100,00 %
11.05.2021 00:44 15,1 C 14,4 C 11,7 C 81 % 1008,6 hPa 0,0 l/m 0 min 0 min 0 W/m 6,4 km/h (2 Bft) 100,00 %
11.05.2021 00:46 15,1 C 14,4 C 11,7 C 81 % 1008,6 hPa 0,0 l/m 0 min 0 min 0 W/m 6,4 km/h (2 Bft) 100,00 %
11.05.2021 00:48 15,1 C 14,4 C 11,7 C 81 % 1008,6 hPa 0,0 l/m 0 min 0 min 0 W/m 6,4 km/h (2 Bft) 97,83 %
11.05.2021 00:50 15,0 C 13,9 C 11,7 C 81 % 1008,6 hPa 0,0 l/m 0 min 0 min 0 W/m 3,2 km/h (1 Bft) 97,87 %
11.05.2021 00:52 15,0 C 13,9 C 11,7 C 81 % 1008,5 hPa 0,0 l/m 0 min 0 min 0 W/m 6,4 km/h (2 Bft) 97,87 %
11.05.2021 00:54 15,0 C 13,9 C 11,7 C 81 % 1008,6 hPa 0,0 l/m 0 min 0 min 0 W/m 6,4 km/h (2 Bft) 97,87 %
11.05.2021 00:56 15,0 C 13,9 C 11,7 C 81 % 1008,6 hPa 0,0 l/m 0 min 0 min 0 W/m 6,4 km/h (2 Bft) 97,87 %
11.05.2021 00:58 15,0 C 13,9 C 11,7 C 81 % 1008,6 hPa 0,0 l/m 0 min 0 min 0 W/m 6,4 km/h (2 Bft) 95,65 %
11.05.2021 01:00 15,0 C 13,9 C 11,7 C 81 % 1008,6 hPa 0,0 l/m 0 min 0 min 0 W/m 3,2 km/h (1 Bft) 95,74 %
11.05.2021 01:02 15,0 C 13,9 C 11,7 C 81 % 1008,6 hPa 0,0 l/m 0 min 0 min 0 W/m 3,2 km/h (1 Bft) 97,87 %
11.05.2021 01:04 14,9 C 13,9 C 11,7 C 81 % 1008,5 hPa 0,0 l/m 0 min 0 min 0 W/m 12,9 km/h (3 Bft) 97,87 %
11.05.2021 01:06 14,9 C 13,9 C 11,7 C 81 % 1008,6 hPa 0,0 l/m 0 min 0 min 0 W/m 3,2 km/h (1 Bft) 97,87 %
11.05.2021 01:08 14,9 C 13,9 C 11,7 C 81 % 1008,5 hPa 0,0 l/m 0 min 0 min 0 W/m 6,4 km/h (2 Bft) 97,87 %
11.05.2021 01:10 14,9 C 13,9 C 11,7 C 81 % 1008,5 hPa 0,0 l/m 0 min 0 min 0 W/m 6,4 km/h (2 Bft) 95,65 %
11.05.2021 01:12 14,9 C 13,9 C 11,7 C 81 % 1008,6 hPa 0,0 l/m 0 min 0 min 0 W/m 12,9 km/h (3 Bft) 97,87 %
11.05.2021 01:14 14,8 C 13,9 C 11,7 C 81 % 1008,5 hPa 0,0 l/m 0 min 0 min 0 W/m 3,2 km/h (1 Bft) 97,87 %
11.05.2021 01:16 14,8 C 13,9 C 11,7 C 81 % 1008,6 hPa 0,0 l/m 0 min 0 min 0 W/m 3,2 km/h (1 Bft) 97,83 %
11.05.2021 01:18 14,8 C 13,9 C 11,7 C 81 % 1008,6 hPa 0,0 l/m 0 min 0 min 0 W/m 3,2 km/h (1 Bft) 97,87 %
11.05.2021 01:20 14,8 C 13,9 C 11,7 C 81 % 1008,6 hPa 0,0 l/m 0 min 0 min 0 W/m 6,4 km/h (2 Bft) 95,74 %
11.05.2021 01:22 14,8 C 13,9 C 11,7 C 81 % 1008,6 hPa 0,0 l/m 0 min 0 min 0 W/m 6,4 km/h (2 Bft) 97,83 %
11.05.2021 01:24 14,8 C 13,9 C 11,7 C 81 % 1008,7 hPa 0,0 l/m 0 min 0 min 0 W/m 3,2 km/h (1 Bft) 97,87 %
11.05.2021 01:26 14,8 C 13,9 C 11,7 C 81 % 1008,6 hPa 0,0 l/m 0 min 0 min 0 W/m 3,2 km/h (1 Bft) 97,87 %
11.05.2021 01:28 14,8 C 13,9 C 11,7 C 81 % 1008,7 hPa 0,0 l/m 0 min 0 min 0 W/m 3,2 km/h (1 Bft) 93,62 %
11.05.2021 01:30 14,8 C 13,9 C 11,7 C 81 % 1008,7 hPa 0,0 l/m 0 min 0 min 0 W/m 3,2 km/h (1 Bft) 95,74 %
11.05.2021 01:32 14,8 C 13,9 C 11,7 C 81 % 1008,6 hPa 0,0 l/m 0 min 0 min 0 W/m 6,4 km/h (2 Bft) 93,62 %
11.05.2021 01:34 14,7 C 13,9 C 11,7 C 81 % 1008,6 hPa 0,0 l/m 0 min 0 min 0 W/m 6,4 km/h (2 Bft) 93,48 %
11.05.2021 01:36 14,7 C 13,9 C 11,7 C 81 % 1008,6 hPa 0,0 l/m 0 min 0 min 0 W/m 6,4 km/h (2 Bft) 93,62 %
11.05.2021 01:38 14,7 C 13,9 C 11,7 C 81 % 1008,6 hPa 0,0 l/m 0 min 0 min 0 W/m 3,2 km/h (1 Bft) 95,74 %
11.05.2021 01:40 14,7 C 13,9 C 11,7 C 82 % 1008,6 hPa 0,0 l/m 0 min 0 min 0 W/m 3,2 km/h (1 Bft) 96,36 %
11.05.2021 01:42 14,7 C 13,9 C 11,7 C 82 % 1008,6 hPa 0,0 l/m 0 min 0 min 0 W/m 3,2 km/h (1 Bft) 97,87 %
11.05.2021 01:44 14,7 C 13,9 C 11,7 C 82 % 1008,6 hPa 0,0 l/m 0 min 0 min 0 W/m 3,2 km/h (1 Bft) 95,74 %
11.05.2021 01:46 14,7 C 13,9 C 11,7 C 82 % 1008,6 hPa 0,0 l/m 0 min 0 min 0 W/m 3,2 km/h (1 Bft) 97,87 %
11.05.2021 01:48 14,6 C 13,9 C 11,7 C 82 % 1008,5 hPa 0,0 l/m 0 min 0 min 0 W/m 3,2 km/h (1 Bft) 97,87 %
11.05.2021 01:50 14,6 C 13,9 C 11,7 C 82 % 1008,5 hPa 0,0 l/m 0 min 0 min 0 W/m 3,2 km/h (1 Bft) 97,83 %
11.05.2021 01:52 14,6 C 13,9 C 11,7 C 82 % 1008,6 hPa 0,0 l/m 0 min 0 min 0 W/m 3,2 km/h (1 Bft) 95,74 %
11.05.2021 01:54 14,6 C 13,9 C 11,7 C 82 % 1008,6 hPa 0,0 l/m 0 min 0 min 0 W/m 3,2 km/h (1 Bft) 95,74 %
11.05.2021 01:56 14,6 C 13,9 C 11,7 C 82 % 1008,6 hPa 0,0 l/m 0 min 0 min 0 W/m 3,2 km/h (1 Bft) 97,87 %
11.05.2021 01:58 14,6 C 13,9 C 11,7 C 82 % 1008,5 hPa 0,0 l/m 0 min 0 min 0 W/m 3,2 km/h (1 Bft) 97,87 %
11.05.2021 02:00 14,6 C 13,9 C 11,7 C 82 % 1008,6 hPa 0,0 l/m 0 min 0 min 0 W/m 3,2 km/h (1 Bft) 97,87 %
11.05.2021 02:02 14,6 C 13,9 C 11,7 C 82 % 1008,6 hPa 0,0 l/m 0 min 0 min 0 W/m 3,2 km/h (1 Bft) 97,83 %
11.05.2021 02:04 14,6 C 13,9 C 11,7 C 82 % 1008,6 hPa 0,0 l/m 0 min 0 min 0 W/m 3,2 km/h (1 Bft) 97,87 %
11.05.2021 02:06 14,6 C 13,9 C 11,7 C 82 % 1008,6 hPa 0,0 l/m 0 min 0 min 0 W/m 3,2 km/h (1 Bft) 93,62 %
11.05.2021 02:08 14,6 C 13,9 C 11,7 C 82 % 1008,6 hPa 0,0 l/m 0 min 0 min 0 W/m 3,2 km/h (1 Bft) 95,74 %
11.05.2021 02:10 14,6 C 13,9 C 11,7 C 82 % 1008,6 hPa 0,0 l/m 0 min 0 min 0 W/m 6,4 km/h (2 Bft) 97,87 %
11.05.2021 02:12 14,6 C 13,9 C 11,7 C 82 % 1008,5 hPa 0,0 l/m 0 min 0 min 0 W/m 3,2 km/h (1 Bft) 97,87 %
11.05.2021 02:14 14,5 C 13,9 C 11,7 C 82 % 1008,6 hPa 0,0 l/m 0 min 0 min 0 W/m 6,4 km/h (2 Bft) 97,83 %
11.05.2021 02:16 14,6 C 13,9 C 11,1 C 83 % 1008,7 hPa 0,0 l/m 0 min 2 min 0 W/m 6,4 km/h (2 Bft) 97,87 %
11.05.2021 02:18 14,5 C 13,9 C 11,1 C 83 % 1008,7 hPa 0,0 l/m 0 min 0 min 0 W/m 6,4 km/h (2 Bft) 97,87 %
11.05.2021 02:20 14,5 C 13,9 C 11,1 C 83 % 1008,8 hPa 0,0 l/m 0 min 0 min 0 W/m 6,4 km/h (2 Bft) 97,87 %
11.05.2021 02:22 14,5 C 13,9 C 11,1 C 84 % 1008,8 hPa 0,0 l/m 0 min 0 min 0 W/m 6,4 km/h (2 Bft) 97,87 %
11.05.2021 02:24 14,5 C 13,9 C 11,1 C 84 % 1008,8 hPa 0,0 l/m 0 min 2 min 0 W/m 3,2 km/h (1 Bft) 95,65 %
11.05.2021 02:26 14,5 C 13,9 C 11,1 C 84 % 1008,8 hPa 0,0 l/m 0 min 0 min 0 W/m 6,4 km/h (2 Bft) 97,87 %
11.05.2021 02:28 14,5 C 13,9 C 11,1 C 84 % 1008,8 hPa 0,0 l/m 0 min 0 min 0 W/m 9,7 km/h (2 Bft) 97,87 %
11.05.2021 02:30 14,5 C 13,9 C 11,1 C 84 % 1008,8 hPa 0,0 l/m 0 min 0 min 0 W/m 6,4 km/h (2 Bft) 95,74 %
11.05.2021 02:32 14,5 C 13,9 C 11,1 C 84 % 1008,9 hPa 0,0 l/m 0 min 2 min 0 W/m 12,9 km/h (3 Bft) 97,87 %
11.05.2021 02:34 14,4 C 13,3 C 11,1 C 84 % 1008,9 hPa 0,0 l/m 0 min 2 min 0 W/m 12,9 km/h (3 Bft) 97,87 %
11.05.2021 02:36 14,4 C 13,3 C 11,1 C 84 % 1008,9 hPa 0,0 l/m 0 min 2 min 0 W/m 6,4 km/h (2 Bft) 97,83 %
11.05.2021 02:38 14,4 C 13,3 C 10,6 C 84 % 1008,9 hPa 0,0 l/m 0 min 2 min 0 W/m 6,4 km/h (2 Bft) 97,87 %
11.05.2021 02:40 14,4 C 13,3 C 10,6 C 85 % 1008,9 hPa 0,0 l/m 0 min 2 min 0 W/m 6,4 km/h (2 Bft) 97,87 %
11.05.2021 02:42 14,4 C 13,3 C 10,6 C 85 % 1008,9 hPa 0,0 l/m 0 min 2 min 0 W/m 6,4 km/h (2 Bft) 95,74 %
11.05.2021 02:44 14,4 C 13,3 C 10,6 C 85 % 1008,9 hPa 0,0 l/m 0 min 2 min 0 W/m 3,2 km/h (1 Bft) 97,87 %
11.05.2021 02:46 14,3 C 13,3 C 10,6 C 86 % 1008,9 hPa 0,0 l/m 0 min 2 min 0 W/m 6,4 km/h (2 Bft) 97,87 %
11.05.2021 02:48 14,3 C 13,3 C 10,0 C 86 % 1008,9 hPa 0,0 l/m 0 min 2 min 0 W/m 6,4 km/h (2 Bft) 95,65 %
11.05.2021 02:50 14,3 C 13,3 C 10,0 C 86 % 1008,9 hPa 0,0 l/m 0 min 2 min 0 W/m 3,2 km/h (1 Bft) 97,87 %
11.05.2021 02:52 14,3 C 13,3 C 10,6 C 86 % 1008,9 hPa 0,0 l/m 0 min 2 min 0 W/m 3,2 km/h (1 Bft) 97,87 %
11.05.2021 02:54 14,2 C 13,3 C 10,6 C 86 % 1009,0 hPa 0,0 l/m 0 min 2 min 0 W/m 3,2 km/h (1 Bft) 97,87 %
11.05.2021 02:56 14,2 C 13,3 C 10,0 C 86 % 1008,9 hPa 0,0 l/m 0 min 2 min 0 W/m 6,4 km/h (2 Bft) 98,00 %
11.05.2021 02:58 14,2 C 13,3 C 10,0 C 87 % 1008,9 hPa 0,2 l/m 0 min 2 min 0 W/m 6,4 km/h (2 Bft) 97,83 %
11.05.2021 03:00 14,2 C 13,3 C 10,0 C 87 % 1008,9 hPa 0,0 l/m 0 min 2 min 0 W/m 3,2 km/h (1 Bft) 97,87 %
11.05.2021 03:02 14,2 C 12,8 C 10,0 C 87 % 1008,9 hPa 0,0 l/m 0 min 2 min 0 W/m 6,4 km/h (2 Bft) 97,87 %
11.05.2021 03:04 14,2 C 12,8 C 10,0 C 87 % 1009,0 hPa 0,0 l/m 0 min 2 min 0 W/m 3,2 km/h (1 Bft) 100,00 %
11.05.2021 03:06 14,2 C 12,8 C 10,0 C 87 % 1009,0 hPa 0,0 l/m 0 min 2 min 0 W/m 6,4 km/h (2 Bft) 97,87 %
11.05.2021 03:08 14,2 C 12,8 C 10,0 C 87 % 1009,0 hPa 0,0 l/m 0 min 2 min 0 W/m 6,4 km/h (2 Bft) 95,74 %
11.05.2021 03:10 14,1 C 12,8 C 10,0 C 88 % 1009,0 hPa 0,0 l/m 0 min 2 min 0 W/m 6,4 km/h (2 Bft) 97,14 %
11.05.2021 03:12 14,1 C 12,8 C 10,0 C 88 % 1009,0 hPa 0,2 l/m 0 min 2 min 0 W/m 12,9 km/h (3 Bft) 97,87 %
11.05.2021 03:14 14,0 C 12,8 C 10,0 C 88 % 1009,0 hPa 0,0 l/m 0 min 2 min 0 W/m 6,4 km/h (2 Bft) 97,87 %
11.05.2021 03:16 14,0 C 12,8 C 10,0 C 88 % 1009,1 hPa 0,0 l/m 0 min 2 min 0 W/m 3,2 km/h (1 Bft) 97,87 %
11.05.2021 03:18 14,0 C 12,8 C 10,0 C 88 % 1009,1 hPa 0,0 l/m 0 min 2 min 0 W/m 3,2 km/h (1 Bft) 97,83 %
11.05.2021 03:20 14,0 C 12,8 C 10,0 C 89 % 1009,0 hPa 0,0 l/m 0 min 2 min 0 W/m 3,2 km/h (1 Bft) 100,00 %
11.05.2021 03:22 14,0 C 12,8 C 10,0 C 89 % 1009,1 hPa 0,2 l/m 0 min 2 min 0 W/m 6,4 km/h (2 Bft) 100,00 %
11.05.2021 03:24 13,9 C 12,8 C 10,0 C 89 % 1009,1 hPa 0,0 l/m 0 min 2 min 0 W/m 3,2 km/h (1 Bft) 97,87 %
11.05.2021 03:26 13,9 C 12,8 C 10,0 C 89 % 1009,1 hPa 0,0 l/m 0 min 2 min 0 W/m 0,0 km/h (0 Bft) 100,00 %
11.05.2021 03:28 13,9 C 12,2 C 10,0 C 89 % 1009,1 hPa 0,2 l/m 0 min 2 min 0 W/m 3,2 km/h (1 Bft) 95,74 %
11.05.2021 03:30 13,9 C 12,2 C 10,0 C 90 % 1009,1 hPa 0,0 l/m 0 min 2 min 0 W/m 3,2 km/h (1 Bft) 100,00 %
11.05.2021 03:32 13,9 C 12,2 C 10,0 C 90 % 1009,0 hPa 0,0 l/m 0 min 2 min 0 W/m 3,2 km/h (1 Bft) 100,00 %
11.05.2021 03:34 13,8 C 12,2 C 10,0 C 90 % 1009,1 hPa 0,0 l/m 0 min 2 min 0 W/m 3,2 km/h (1 Bft) 97,87 %
11.05.2021 03:36 13,8 C 12,2 C 10,0 C 90 % 1009,1 hPa 0,0 l/m 0 min 2 min 0 W/m 6,4 km/h (2 Bft) 100,00 %
11.05.2021 03:38 13,8 C 12,2 C 10,0 C 90 % 1009,1 hPa 0,0 l/m 0 min 0 min 0 W/m 3,2 km/h (1 Bft) 100,00 %
11.05.2021 03:40 13,8 C 12,2 C 10,0 C 90 % 1009,0 hPa 0,0 l/m 0 min 0 min 0 W/m 3,2 km/h (1 Bft) 97,87 %
11.05.2021 03:42 13,8 C 12,2 C 10,0 C 91 % 1009,0 hPa 0,0 l/m 0 min 0 min 0 W/m 3,2 km/h (1 Bft) 100,00 %
11.05.2021 03:44 13,7 C 12,2 C 10,0 C 91 % 1008,9 hPa 0,0 l/m 0 min 2 min 0 W/m 3,2 km/h (1 Bft) 97,87 %
11.05.2021 03:46 13,7 C 12,2 C 10,0 C 91 % 1009,0 hPa 0,0 l/m 0 min 0 min 0 W/m 3,2 km/h (1 Bft) 100,00 %
11.05.2021 03:48 13,6 C 12,2 C 10,0 C 91 % 1008,9 hPa 0,0 l/m 0 min 0 min 0 W/m 3,2 km/h (1 Bft) 97,87 %
11.05.2021 03:50 13,6 C 12,2 C 10,0 C 91 % 1009,0 hPa 0,0 l/m 0 min 0 min 0 W/m 6,4 km/h (2 Bft) 100,00 %
11.05.2021 03:52 13,6 C 12,2 C 10,0 C 91 % 1008,9 hPa 0,0 l/m 0 min 0 min 0 W/m 6,4 km/h (2 Bft) 97,83 %
11.05.2021 03:54 13,5 C 12,2 C 10,0 C 91 % 1008,9 hPa 0,0 l/m 0 min 0 min 0 W/m 6,4 km/h (2 Bft) 97,87 %
11.05.2021 03:56 13,5 C 12,2 C 10,0 C 92 % 1008,9 hPa 0,0 l/m 0 min 0 min 0 W/m 3,2 km/h (1 Bft) 95,74 %
11.05.2021 03:58 13,5 C 12,2 C 10,0 C 92 % 1008,8 hPa 0,0 l/m 0 min 0 min 0 W/m 3,2 km/h (1 Bft) 95,74 %
11.05.2021 04:00 13,5 C 12,2 C 10,0 C 92 % 1008,8 hPa 0,0 l/m 0 min 0 min 0 W/m 3,2 km/h (1 Bft) 95,74 %
11.05.2021 04:02 13,5 C 12,2 C 10,0 C 92 % 1008,8 hPa 0,0 l/m 0 min 0 min 0 W/m 3,2 km/h (1 Bft) 94,74 %
11.05.2021 04:04 13,4 C 12,2 C 10,0 C 92 % 1008,8 hPa 0,0 l/m 0 min 0 min 0 W/m 3,2 km/h (1 Bft) 95,74 %
11.05.2021 04:06 13,4 C 12,2 C 10,0 C 92 % 1008,9 hPa 0,0 l/m 0 min 0 min 0 W/m 6,4 km/h (2 Bft) 95,65 %
11.05.2021 04:08 13,4 C 12,2 C 10,0 C 92 % 1008,8 hPa 0,0 l/m 0 min 0 min 0 W/m 3,2 km/h (1 Bft) 93,62 %
11.05.2021 04:10 13,4 C 12,2 C 10,0 C 92 % 1008,8 hPa 0,0 l/m 0 min 0 min 0 W/m 3,2 km/h (1 Bft) 94,34 %
11.05.2021 04:12 13,4 C 12,2 C 10,0 C 93 % 1008,8 hPa 0,0 l/m 0 min 0 min 0 W/m 3,2 km/h (1 Bft) 95,74 %
11.05.2021 04:14 13,4 C 12,2 C 10,0 C 93 % 1008,8 hPa 0,0 l/m 0 min 0 min 0 W/m 3,2 km/h (1 Bft) 95,74 %
11.05.2021 04:16 13,4 C 12,2 C 10,0 C 93 % 1008,7 hPa 0,0 l/m 0 min 0 min 0 W/m 6,4 km/h (2 Bft) 95,74 %
11.05.2021 04:18 13,4 C 12,2 C 10,0 C 93 % 1008,7 hPa 0,0 l/m 0 min 0 min 0 W/m 3,2 km/h (1 Bft) 95,74 %
11.05.2021 04:20 13,3 C 12,2 C 10,0 C 93 % 1008,7 hPa 0,0 l/m 0 min 0 min 0 W/m 3,2 km/h (1 Bft) 95,74 %
11.05.2021 04:22 13,3 C 12,2 C 10,0 C 93 % 1008,7 hPa 0,0 l/m 0 min 0 min 0 W/m 3,2 km/h (1 Bft) 95,65 %
11.05.2021 04:24 13,3 C 12,2 C 10,6 C 93 % 1008,7 hPa 0,0 l/m 0 min 0 min 0 W/m 3,2 km/h (1 Bft) 91,49 %
11.05.2021 04:26 13,3 C 12,2 C 10,0 C 93 % 1008,8 hPa 0,0 l/m 0 min 0 min 0 W/m 3,2 km/h (1 Bft) 93,62 %
11.05.2021 04:28 13,3 C 12,2 C 10,0 C 93 % 1008,8 hPa 0,0 l/m 0 min 0 min 0 W/m 6,4 km/h (2 Bft) 93,62 %
11.05.2021 04:30 13,3 C 12,2 C 10,6 C 93 % 1008,8 hPa 0,0 l/m 0 min 0 min 0 W/m 3,2 km/h (1 Bft) 95,74 %
11.05.2021 04:32 13,3 C 12,2 C 10,6 C 93 % 1008,7 hPa 0,0 l/m 0 min 0 min 0 W/m 12,9 km/h (3 Bft) 95,65 %
11.05.2021 04:34 13,3 C 12,2 C 10,6 C 93 % 1008,8 hPa 0,0 l/m 0 min 0 min 0 W/m 3,2 km/h (1 Bft) 93,62 %
11.05.2021 04:36 13,3 C 12,2 C 10,6 C 94 % 1008,7 hPa 0,0 l/m 0 min 0 min 0 W/m 6,4 km/h (2 Bft) 95,74 %
11.05.2021 04:38 13,3 C 12,2 C 10,6 C 94 % 1008,7 hPa 0,0 l/m 0 min 0 min 0 W/m 3,2 km/h (1 Bft) 97,87 %
11.05.2021 04:40 13,2 C 12,2 C 10,6 C 94 % 1008,7 hPa 0,0 l/m 0 min 0 min 0 W/m 6,4 km/h (2 Bft) 97,87 %
11.05.2021 04:42 13,3 C 12,2 C 10,6 C 94 % 1008,7 hPa 0,0 l/m 0 min 0 min 0 W/m 6,4 km/h (2 Bft) 95,74 %
11.05.2021 04:44 13,2 C 12,2 C 10,6 C 94 % 1008,7 hPa 0,0 l/m 0 min 0 min 0 W/m 3,2 km/h (1 Bft) 97,83 %
11.05.2021 04:46 13,2 C 12,2 C 10,6 C 94 % 1008,7 hPa 0,0 l/m 0 min 0 min 0 W/m 6,4 km/h (2 Bft) 97,87 %
11.05.2021 04:48 13,2 C 12,2 C 10,6 C 94 % 1008,7 hPa 0,0 l/m 0 min 0 min 0 W/m 3,2 km/h (1 Bft) 100,00 %
11.05.2021 04:50 13,2 C 12,2 C 10,6 C 94 % 1008,7 hPa 0,0 l/m 0 min 0 min 0 W/m 6,4 km/h (2 Bft) 100,00 %
11.05.2021 04:52 13,2 C 12,2 C 10,6 C 94 % 1008,7 hPa 0,0 l/m 0 min 0 min 0 W/m 3,2 km/h (1 Bft) 97,87 %
11.05.2021 04:54 13,1 C 12,2 C 10,6 C 94 % 1008,7 hPa 0,0 l/m 0 min 0 min 0 W/m 6,4 km/h (2 Bft) 100,00 %
11.05.2021 04:56 13,1 C 12,2 C 10,6 C 94 % 1008,6 hPa 0,0 l/m 0 min 0 min 0 W/m 6,4 km/h (2 Bft) 100,00 %
11.05.2021 04:58 13,2 C 12,2 C 10,6 C 94 % 1008,7 hPa 0,0 l/m 0 min 0 min 0 W/m 6,4 km/h (2 Bft) 100,00 %
11.05.2021 05:00 13,1 C 12,2 C 10,6 C 94 % 1008,7 hPa 0,0 l/m 0 min 0 min 0 W/m 6,4 km/h (2 Bft) 97,87 %
11.05.2021 05:02 13,1 C 12,2 C 10,6 C 95 % 1008,6 hPa 0,0 l/m 0 min 0 min 0 W/m 6,4 km/h (2 Bft) 100,00 %
11.05.2021 05:04 13,1 C 12,2 C 10,6 C 94 % 1008,6 hPa 0,0 l/m 0 min 0 min 0 W/m 3,2 km/h (1 Bft) 100,00 %
11.05.2021 05:06 13,1 C 12,2 C 10,6 C 94 % 1008,7 hPa 0,0 l/m 0 min 0 min 0 W/m 3,2 km/h (1 Bft) 100,00 %
11.05.2021 05:08 13,1 C 12,2 C 10,6 C 94 % 1008,7 hPa 0,0 l/m 0 min 0 min 0 W/m 3,2 km/h (1 Bft) 100,00 %
11.05.2021 05:10 13,1 C 12,2 C 10,6 C 95 % 1008,7 hPa 0,0 l/m 0 min 0 min 0 W/m 6,4 km/h (2 Bft) 100,00 %
11.05.2021 05:12 13,1 C 12,2 C 10,6 C 95 % 1008,7 hPa 0,0 l/m 0 min 0 min 0 W/m 3,2 km/h (1 Bft) 100,00 %
11.05.2021 05:14 13,1 C 12,2 C 10,6 C 95 % 1008,7 hPa 0,0 l/m 0 min 0 min 0 W/m 6,4 km/h (2 Bft) 100,00 %
11.05.2021 05:16 13,1 C 12,2 C 10,6 C 95 % 1008,7 hPa 0,0 l/m 0 min 0 min 0 W/m 6,4 km/h (2 Bft) 100,00 %
11.05.2021 05:18 13,1 C 12,2 C 10,6 C 95 % 1008,7 hPa 0,0 l/m 0 min 0 min 0 W/m 3,2 km/h (1 Bft) 100,00 %
11.05.2021 05:20 13,1 C 12,2 C 10,6 C 95 % 1008,7 hPa 0,0 l/m 0 min 0 min 0 W/m 6,4 km/h (2 Bft) 100,00 %
11.05.2021 05:22 13,1 C 12,2 C 10,6 C 95 % 1008,7 hPa 0,0 l/m 0 min 0 min 0 W/m 6,4 km/h (2 Bft) 100,00 %
11.05.2021 05:24 13,1 C 12,2 C 10,6 C 95 % 1008,7 hPa 0,0 l/m 0 min 0 min 0 W/m 3,2 km/h (1 Bft) 100,00 %
11.05.2021 05:26 13,1 C 12,2 C 10,6 C 95 % 1008,7 hPa 0,0 l/m 0 min 0 min 0 W/m 3,2 km/h (1 Bft) 100,00 %
11.05.2021 05:28 13,0 C 12,2 C 10,6 C 95 % 1008,6 hPa 0,0 l/m 0 min 0 min 0 W/m 3,2 km/h (1 Bft) 97,87 %
11.05.2021 05:30 13,0 C 12,2 C 10,6 C 95 % 1008,7 hPa 0,0 l/m 0 min 0 min 0 W/m 6,4 km/h (2 Bft) 100,00 %
11.05.2021 05:32 13,0 C 12,2 C 10,6 C 95 % 1008,6 hPa 0,0 l/m 0 min 0 min 0 W/m 9,7 km/h (2 Bft) 100,00 %
11.05.2021 05:34 13,0 C 12,2 C 10,6 C 95 % 1008,6 hPa 0,0 l/m 0 min 0 min 0 W/m 6,4 km/h (2 Bft) 100,00 %
11.05.2021 05:36 13,0 C 12,2 C 10,6 C 95 % 1008,6 hPa 0,0 l/m 0 min 2 min 0 W/m 6,4 km/h (2 Bft) 100,00 %
11.05.2021 05:38 13,0 C 12,2 C 10,6 C 95 % 1008,6 hPa 0,0 l/m 0 min 2 min 0 W/m 12,9 km/h (3 Bft) 100,00 %
11.05.2021 05:40 13,0 C 12,2 C 10,6 C 95 % 1008,6 hPa 0,0 l/m 0 min 2 min 0 W/m 6,4 km/h (2 Bft) 100,00 %
11.05.2021 05:42 13,0 C 12,2 C 10,6 C 95 % 1008,6 hPa 0,0 l/m 0 min 2 min 0 W/m 6,4 km/h (2 Bft) 100,00 %
11.05.2021 05:44 13,0 C 12,2 C 10,6 C 95 % 1008,6 hPa 0,0 l/m 0 min 0 min 0 W/m 6,4 km/h (2 Bft) 100,00 %
11.05.2021 05:46 13,0 C 12,2 C 10,6 C 95 % 1008,5 hPa 0,0 l/m 0 min 0 min 0 W/m 6,4 km/h (2 Bft) 97,87 %
11.05.2021 05:48 13,0 C 12,2 C 10,6 C 95 % 1008,6 hPa 0,0 l/m 0 min 0 min 0 W/m 6,4 km/h (2 Bft) 100,00 %
11.05.2021 05:50 13,0 C 12,2 C 10,6 C 95 % 1008,5 hPa 0,0 l/m 0 min 2 min 0 W/m 6,4 km/h (2 Bft) 91,49 %
11.05.2021 05:52 13,0 C 12,2 C 10,6 C 96 % 1008,5 hPa 0,0 l/m 0 min 2 min 0 W/m 6,4 km/h (2 Bft) 58,14 %
11.05.2021 05:54 13,0 C 12,2 C 10,6 C 96 % 1008,6 hPa 0,0 l/m 0 min 2 min 0 W/m 3,2 km/h (1 Bft) 100,00 %
11.05.2021 05:56 13,0 C 12,2 C 10,6 C 96 % 1008,6 hPa 0,0 l/m 0 min 0 min 0 W/m 9,7 km/h (2 Bft) 100,00 %
11.05.2021 05:58 13,0 C 12,2 C 10,6 C 96 % 1008,6 hPa 0,0 l/m 0 min 0 min 0 W/m 6,4 km/h (2 Bft) 100,00 %
11.05.2021 06:00 13,0 C 12,2 C 10,6 C 96 % 1008,7 hPa 0,0 l/m 0 min 0 min 0 W/m 6,4 km/h (2 Bft) 100,00 %
11.05.2021 06:02 13,0 C 12,2 C 10,6 C 96 % 1008,7 hPa 0,0 l/m 0 min 0 min 0 W/m 6,4 km/h (2 Bft) 100,00 %
11.05.2021 06:04 13,0 C 12,2 C 10,6 C 96 % 1008,7 hPa 0,0 l/m 0 min 0 min 0 W/m 3,2 km/h (1 Bft) 100,00 %
11.05.2021 06:08 13,0 C 12,2 C 10,6 C 96 % 1008,8 hPa 0,0 l/m 0 min 0 min 0 W/m 9,7 km/h (2 Bft) 97,85 %
11.05.2021 06:10 12,9 C 12,2 C 10,6 C 96 % 1008,8 hPa 0,0 l/m 0 min 2 min 2 W/m 6,4 km/h (2 Bft) 100,00 %
11.05.2021 06:12 13,0 C 12,2 C 10,6 C 96 % 1008,7 hPa 0,2 l/m 0 min 0 min 5 W/m 6,4 km/h (2 Bft) 100,00 %
11.05.2021 06:14 12,9 C 12,2 C 10,6 C 96 % 1008,7 hPa 0,0 l/m 0 min 0 min 6 W/m 3,2 km/h (1 Bft) 97,87 %
11.05.2021 06:16 13,0 C 12,2 C 10,6 C 96 % 1008,7 hPa 0,0 l/m 0 min 0 min 8 W/m 6,4 km/h (2 Bft) 100,00 %
11.05.2021 06:18 12,9 C 12,2 C 10,6 C 96 % 1008,7 hPa 0,0 l/m 0 min 0 min 9 W/m 3,2 km/h (1 Bft) 97,83 %
11.05.2021 06:20 12,9 C 12,2 C 10,6 C 96 % 1008,7 hPa 0,0 l/m 0 min 0 min 7 W/m 12,9 km/h (3 Bft) 100,00 %
11.05.2021 06:22 12,9 C 12,2 C 10,6 C 96 % 1008,7 hPa 0,0 l/m 0 min 0 min 6 W/m 6,4 km/h (2 Bft) 100,00 %
11.05.2021 06:24 12,9 C 12,2 C 10,6 C 96 % 1008,7 hPa 0,0 l/m 0 min 0 min 5 W/m 6,4 km/h (2 Bft) 97,87 %
11.05.2021 06:26 12,9 C 12,2 C 10,6 C 96 % 1008,6 hPa 0,0 l/m 0 min 0 min 5 W/m 6,4 km/h (2 Bft) 97,87 %
11.05.2021 06:28 12,9 C 12,2 C 10,6 C 96 % 1008,6 hPa 0,0 l/m 0 min 0 min 6 W/m 6,4 km/h (2 Bft) 97,87 %
11.05.2021 06:30 13,0 C 12,2 C 10,6 C 96 % 1008,7 hPa 0,0 l/m 0 min 0 min 10 W/m 6,4 km/h (2 Bft) 93,48 %
11.05.2021 06:32 13,0 C 12,2 C 10,6 C 96 % 1008,7 hPa 0,0 l/m 0 min 0 min 11 W/m 12,9 km/h (3 Bft) 97,87 %
11.05.2021 06:34 12,9 C 12,2 C 10,6 C 96 % 1008,6 hPa 0,0 l/m 0 min 0 min 9 W/m 6,4 km/h (2 Bft) 97,87 %
11.05.2021 06:36 13,0 C 12,2 C 10,6 C 96 % 1008,7 hPa 0,0 l/m 0 min 0 min 7 W/m 6,4 km/h (2 Bft) 95,74 %
11.05.2021 06:38 12,9 C 12,2 C 10,6 C 96 % 1008,6 hPa 0,0 l/m 0 min 0 min 7 W/m 6,4 km/h (2 Bft) 95,74 %
11.05.2021 06:40 13,0 C 12,2 C 10,6 C 96 % 1008,7 hPa 0,0 l/m 0 min 0 min 7 W/m 9,7 km/h (2 Bft) 97,96 %
11.05.2021 06:42 13,0 C 12,2 C 10,6 C 96 % 1008,7 hPa 0,0 l/m 0 min 0 min 7 W/m 9,7 km/h (2 Bft) 97,87 %
11.05.2021 06:44 12,9 C 12,2 C 10,6 C 96 % 1008,8 hPa 0,0 l/m 0 min 0 min 9 W/m 12,9 km/h (3 Bft) 97,87 %
11.05.2021 06:46 13,0 C 12,2 C 10,6 C 97 % 1008,8 hPa 0,0 l/m 0 min 0 min 11 W/m 6,4 km/h (2 Bft) 95,74 %
11.05.2021 06:48 13,0 C 12,2 C 10,6 C 97 % 1008,8 hPa 0,0 l/m 0 min 0 min 12 W/m 9,7 km/h (2 Bft) 97,87 %
11.05.2021 06:50 13,0 C 12,2 C 10,6 C 97 % 1008,8 hPa 0,0 l/m 0 min 0 min 12 W/m 12,9 km/h (3 Bft) 97,87 %
11.05.2021 06:52 13,0 C 12,2 C 10,6 C 97 % 1008,8 hPa 0,0 l/m 0 min 0 min 12 W/m 6,4 km/h (2 Bft) 97,83 %
11.05.2021 06:54 13,0 C 12,2 C 10,6 C 97 % 1008,8 hPa 0,0 l/m 0 min 0 min 12 W/m 6,4 km/h (2 Bft) 97,87 %
11.05.2021 06:56 13,0 C 12,2 C 10,6 C 97 % 1008,8 hPa 0,0 l/m 0 min 0 min 12 W/m 6,4 km/h (2 Bft) 97,87 %
11.05.2021 06:58 13,0 C 12,2 C 10,6 C 97 % 1008,8 hPa 0,0 l/m 0 min 0 min 12 W/m 9,7 km/h (2 Bft) 97,87 %
11.05.2021 07:00 13,0 C 12,2 C 10,6 C 97 % 1008,8 hPa 0,0 l/m 0 min 0 min 12 W/m 9,7 km/h (2 Bft) 93,62 %
11.05.2021 07:02 13,0 C 12,2 C 10,6 C 97 % 1008,8 hPa 0,0 l/m 0 min 0 min 14 W/m 3,2 km/h (1 Bft) 93,62 %
11.05.2021 07:04 13,0 C 12,2 C 10,6 C 97 % 1008,8 hPa 0,0 l/m 0 min 0 min 16 W/m 9,7 km/h (2 Bft) 93,48 %
11.05.2021 07:06 13,0 C 12,2 C 10,6 C 97 % 1008,7 hPa 0,0 l/m 0 min 0 min 17 W/m 6,4 km/h (2 Bft) 93,62 %
11.05.2021 07:08 12,9 C 12,2 C 10,6 C 97 % 1008,7 hPa 0,0 l/m 0 min 0 min 19 W/m 12,9 km/h (3 Bft) 95,92 %
11.05.2021 07:10 12,9 C 12,2 C 10,6 C 97 % 1008,7 hPa 0,0 l/m 0 min 2 min 22 W/m 9,7 km/h (2 Bft) 94,29 %
11.05.2021 07:12 12,9 C 12,2 C 10,6 C 97 % 1008,7 hPa 0,0 l/m 0 min 2 min 26 W/m 3,2 km/h (1 Bft) 95,74 %
11.05.2021 07:14 12,9 C 12,2 C 10,6 C 97 % 1008,7 hPa 0,0 l/m 0 min 2 min 30 W/m 6,4 km/h (2 Bft) 95,74 %
11.05.2021 07:16 12,9 C 12,2 C 10,6 C 97 % 1008,7 hPa 0,0 l/m 0 min 2 min 36 W/m 6,4 km/h (2 Bft) 95,74 %
11.05.2021 07:18 12,9 C 12,2 C 10,6 C 97 % 1008,6 hPa 0,0 l/m 0 min 2 min 41 W/m 3,2 km/h (1 Bft) 93,62 %
11.05.2021 07:20 13,0 C 12,2 C 10,6 C 97 % 1008,6 hPa 0,2 l/m 0 min 2 min 47 W/m 3,2 km/h (1 Bft) 93,62 %
11.05.2021 07:22 13,0 C 12,2 C 10,6 C 97 % 1008,6 hPa 0,0 l/m 0 min 2 min 52 W/m 6,4 km/h (2 Bft) 95,65 %
11.05.2021 07:24 13,0 C 12,2 C 10,6 C 97 % 1008,7 hPa 0,0 l/m 0 min 2 min 57 W/m 3,2 km/h (1 Bft) 93,62 %
11.05.2021 07:26 13,0 C 12,8 C 10,6 C 97 % 1008,7 hPa 0,0 l/m 0 min 2 min 62 W/m 3,2 km/h (1 Bft) 95,74 %
11.05.2021 07:28 13,0 C 12,8 C 10,6 C 97 % 1008,7 hPa 0,0 l/m 0 min 2 min 66 W/m 3,2 km/h (1 Bft) 95,74 %
11.05.2021 07:30 13,0 C 12,8 C 11,1 C 97 % 1008,7 hPa 0,0 l/m 0 min 0 min 69 W/m 6,4 km/h (2 Bft) 95,74 %
11.05.2021 07:32 13,0 C 12,8 C 11,1 C 97 % 1008,7 hPa 0,0 l/m 0 min 2 min 68 W/m 3,2 km/h (1 Bft) 95,74 %
11.05.2021 07:34 13,0 C 12,8 C 11,1 C 97 % 1008,7 hPa 0,0 l/m 0 min 0 min 66 W/m 3,2 km/h (1 Bft) 95,65 %
11.05.2021 07:36 13,0 C 12,8 C 11,1 C 97 % 1008,7 hPa 0,0 l/m 0 min 0 min 65 W/m 3,2 km/h (1 Bft) 95,74 %
11.05.2021 07:38 13,0 C 12,8 C 11,1 C 97 % 1008,7 hPa 0,0 l/m 0 min 0 min 65 W/m 3,2 km/h (1 Bft) 92,59 %
11.05.2021 07:40 13,0 C 12,8 C 10,6 C 97 % 1008,7 hPa 0,0 l/m 0 min 0 min 66 W/m 6,4 km/h (2 Bft) 95,92 %
11.05.2021 07:42 13,0 C 12,8 C 11,1 C 97 % 1008,7 hPa 0,0 l/m 0 min 0 min 69 W/m 3,2 km/h (1 Bft) 95,74 %
11.05.2021 07:44 13,0 C 12,8 C 11,1 C 97 % 1008,7 hPa 0,0 l/m 0 min 0 min 69 W/m 6,4 km/h (2 Bft) 93,62 %
11.05.2021 07:46 13,0 C 12,8 C 11,1 C 97 % 1008,7 hPa 0,0 l/m 0 min 0 min 74 W/m 3,2 km/h (1 Bft) 95,74 %
11.05.2021 07:48 13,0 C 12,8 C 11,1 C 97 % 1008,6 hPa 0,0 l/m 0 min 0 min 82 W/m 3,2 km/h (1 Bft) 95,74 %
11.05.2021 07:50 13,1 C 12,8 C 11,1 C 97 % 1008,6 hPa 0,0 l/m 0 min 0 min 90 W/m 3,2 km/h (1 Bft) 95,65 %
11.05.2021 07:52 13,1 C 12,8 C 11,1 C 97 % 1008,6 hPa 0,0 l/m 0 min 0 min 100 W/m 3,2 km/h (1 Bft) 95,74 %
11.05.2021 07:54 13,1 C 13,3 C 11,1 C 97 % 1008,6 hPa 0,0 l/m 0 min 0 min 117 W/m 0,0 km/h (0 Bft) 97,87 %
11.05.2021 07:56 13,1 C 13,3 C 11,1 C 97 % 1008,5 hPa 0,0 l/m 2 min 0 min 155 W/m 6,4 km/h (2 Bft) 95,74 %
11.05.2021 07:58 13,2 C 13,9 C 11,1 C 97 % 1008,5 hPa 0,0 l/m 2 min 0 min 185 W/m 6,4 km/h (2 Bft) 97,87 %
11.05.2021 08:00 13,3 C 13,9 C 11,7 C 98 % 1008,4 hPa 0,0 l/m 2 min 0 min 179 W/m 3,2 km/h (1 Bft) 97,87 %
11.05.2021 08:02 13,3 C 13,9 C 11,7 C 98 % 1008,4 hPa 0,0 l/m 2 min 0 min 162 W/m 0,0 km/h (0 Bft) 97,83 %
11.05.2021 08:04 13,4 C 13,9 C 11,7 C 98 % 1008,3 hPa 0,0 l/m 0 min 0 min 146 W/m 6,4 km/h (2 Bft) 97,87 %
11.05.2021 08:06 13,4 C 13,9 C 11,7 C 98 % 1008,4 hPa 0,0 l/m 0 min 0 min 133 W/m 3,2 km/h (1 Bft) 97,87 %
11.05.2021 08:08 13,4 C 13,9 C 11,7 C 98 % 1008,4 hPa 0,0 l/m 0 min 0 min 131 W/m 3,2 km/h (1 Bft) 95,74 %
11.05.2021 08:10 13,4 C 13,9 C 11,7 C 98 % 1008,5 hPa 0,0 l/m 0 min 0 min 151 W/m 6,4 km/h (2 Bft) 97,96 %
11.05.2021 08:12 13,5 C 13,9 C 11,7 C 98 % 1008,4 hPa 0,0 l/m 0 min 0 min 149 W/m 3,2 km/h (1 Bft) 97,87 %
11.05.2021 08:14 13,5 C 14,4 C 11,7 C 98 % 1008,4 hPa 0,0 l/m 0 min 0 min 129 W/m 0,0 km/h (0 Bft) 97,87 %
11.05.2021 08:16 13,5 C 14,4 C 11,7 C 98 % 1008,3 hPa 0,0 l/m 0 min 0 min 131 W/m 3,2 km/h (1 Bft) 97,83 %
11.05.2021 08:18 13,5 C 14,4 C 11,7 C 98 % 1008,3 hPa 0,0 l/m 0 min 0 min 149 W/m 3,2 km/h (1 Bft) 95,74 %
11.05.2021 08:20 13,5 C 14,4 C 11,7 C 97 % 1008,4 hPa 0,0 l/m 0 min 0 min 140 W/m 3,2 km/h (1 Bft) 97,87 %
11.05.2021 08:22 13,5 C 14,4 C 11,7 C 97 % 1008,3 hPa 0,0 l/m 0 min 0 min 125 W/m 3,2 km/h (1 Bft) 95,74 %
11.05.2021 08:24 13,5 C 14,4 C 11,7 C 97 % 1008,3 hPa 0,0 l/m 0 min 0 min 126 W/m 0,0 km/h (0 Bft) 95,74 %
11.05.2021 08:26 13,5 C 14,4 C 11,7 C 97 % 1008,3 hPa 0,0 l/m 0 min 0 min 132 W/m 3,2 km/h (1 Bft) 97,87 %
11.05.2021 08:28 13,6 C 14,4 C 11,7 C 97 % 1008,3 hPa 0,0 l/m 0 min 0 min 125 W/m 0,0 km/h (0 Bft) 100,00 %
11.05.2021 08:30 13,6 C 14,4 C 11,7 C 97 % 1008,3 hPa 0,0 l/m 0 min 0 min 115 W/m 3,2 km/h (1 Bft) 97,87 %
11.05.2021 08:32 13,6 C 14,4 C 11,7 C 97 % 1008,4 hPa 0,0 l/m 0 min 0 min 112 W/m 3,2 km/h (1 Bft) 97,87 %
11.05.2021 08:34 13,6 C 14,4 C 11,7 C 97 % 1008,4 hPa 0,0 l/m 0 min 0 min 103 W/m 3,2 km/h (1 Bft) 100,00 %
11.05.2021 08:36 13,6 C 14,4 C 11,7 C 97 % 1008,5 hPa 0,0 l/m 0 min 0 min 115 W/m 0,0 km/h (0 Bft) 100,00 %
11.05.2021 08:38 13,7 C 14,4 C 11,7 C 97 % 1008,4 hPa 0,0 l/m 0 min 0 min 146 W/m 3,2 km/h (1 Bft) 97,87 %
11.05.2021 08:40 13,7 C 14,4 C 11,7 C 97 % 1008,5 hPa 0,0 l/m 0 min 0 min 150 W/m 3,2 km/h (1 Bft) 100,00 %
11.05.2021 08:42 13,8 C 14,4 C 11,7 C 97 % 1008,5 hPa 0,0 l/m 0 min 0 min 137 W/m 3,2 km/h (1 Bft) 100,00 %
11.05.2021 08:44 13,8 C 14,4 C 11,7 C 97 % 1008,5 hPa 0,0 l/m 0 min 0 min 129 W/m 3,2 km/h (1 Bft) 100,00 %
11.05.2021 08:46 13,8 C 14,4 C 11,7 C 97 % 1008,6 hPa 0,0 l/m 0 min 0 min 121 W/m 6,4 km/h (2 Bft) 100,00 %
11.05.2021 08:48 13,8 C 14,4 C 11,7 C 97 % 1008,5 hPa 0,0 l/m 0 min 0 min 110 W/m 3,2 km/h (1 Bft) 100,00 %
11.05.2021 08:50 13,9 C 14,4 C 11,7 C 97 % 1008,5 hPa 0,0 l/m 0 min 0 min 102 W/m 3,2 km/h (1 Bft) 97,87 %
11.05.2021 08:52 13,9 C 14,4 C 11,7 C 97 % 1008,6 hPa 0,0 l/m 0 min 0 min 104 W/m 3,2 km/h (1 Bft) 100,00 %
11.05.2021 08:54 13,9 C 14,4 C 11,7 C 97 % 1008,6 hPa 0,0 l/m 0 min 0 min 108 W/m 6,4 km/h (2 Bft) 97,87 %
11.05.2021 08:56 13,9 C 14,4 C 11,7 C 97 % 1008,6 hPa 0,0 l/m 0 min 0 min 104 W/m 6,4 km/h (2 Bft) 100,00 %
11.05.2021 08:58 14,0 C 13,9 C 11,7 C 97 % 1008,6 hPa 0,0 l/m 0 min 0 min 94 W/m 6,4 km/h (2 Bft) 100,00 %
11.05.2021 09:00 14,0 C 13,9 C 11,7 C 96 % 1008,5 hPa 0,0 l/m 0 min 0 min 86 W/m 6,4 km/h (2 Bft) 97,83 %
11.05.2021 09:02 14,0 C 13,9 C 11,7 C 96 % 1008,5 hPa 0,0 l/m 0 min 0 min 86 W/m 3,2 km/h (1 Bft) 97,87 %
11.05.2021 09:04 14,0 C 13,9 C 11,7 C 96 % 1008,5 hPa 0,0 l/m 0 min 0 min 99 W/m 6,4 km/h (2 Bft) 97,87 %
11.05.2021 09:06 14,0 C 13,9 C 11,7 C 96 % 1008,5 hPa 0,0 l/m 0 min 0 min 113 W/m 3,2 km/h (1 Bft) 95,74 %
11.05.2021 09:08 14,0 C 13,9 C 11,7 C 96 % 1008,4 hPa 0,0 l/m 0 min 0 min 125 W/m 3,2 km/h (1 Bft) 93,62 %
11.05.2021 09:10 14,0 C 13,9 C 11,7 C 96 % 1008,5 hPa 0,0 l/m 0 min 0 min 126 W/m 6,4 km/h (2 Bft) 98,00 %
11.05.2021 09:12 14,0 C 13,9 C 11,7 C 96 % 1008,4 hPa 0,0 l/m 0 min 0 min 118 W/m 9,7 km/h (2 Bft) 95,65 %
11.05.2021 09:14 14,0 C 13,9 C 11,7 C 96 % 1008,5 hPa 0,0 l/m 0 min 0 min 105 W/m 6,4 km/h (2 Bft) 98,00 %
11.05.2021 09:16 14,0 C 13,9 C 11,7 C 95 % 1008,5 hPa 0,0 l/m 0 min 0 min 98 W/m 3,2 km/h (1 Bft) 97,14 %
11.05.2021 09:18 14,0 C 13,9 C 11,7 C 95 % 1008,4 hPa 0,0 l/m 0 min 0 min 93 W/m 3,2 km/h (1 Bft) 96,23 %
11.05.2021 09:20 14,0 C 13,9 C 11,7 C 95 % 1008,5 hPa 0,0 l/m 0 min 0 min 94 W/m 6,4 km/h (2 Bft) 97,87 %
11.05.2021 09:22 14,0 C 13,9 C 11,7 C 95 % 1008,3 hPa 0,0 l/m 0 min 0 min 101 W/m 6,4 km/h (2 Bft) 97,87 %
11.05.2021 09:24 14,0 C 13,9 C 11,7 C 95 % 1008,4 hPa 0,0 l/m 0 min 0 min 110 W/m 6,4 km/h (2 Bft) 95,92 %
11.05.2021 09:26 14,0 C 13,9 C 11,7 C 95 % 1008,3 hPa 0,0 l/m 0 min 0 min 120 W/m 6,4 km/h (2 Bft) 96,00 %
11.05.2021 09:28 14,0 C 13,9 C 11,7 C 95 % 1008,3 hPa 0,0 l/m 0 min 0 min 126 W/m 3,2 km/h (1 Bft) 97,14 %
11.05.2021 09:30 14,0 C 13,9 C 11,7 C 95 % 1008,3 hPa 0,0 l/m 0 min 0 min 131 W/m 3,2 km/h (1 Bft) 96,23 %
11.05.2021 09:32 14,0 C 13,9 C 11,7 C 95 % 1008,3 hPa 0,0 l/m 0 min 0 min 137 W/m 3,2 km/h (1 Bft) 95,74 %
11.05.2021 09:34 14,1 C 14,4 C 12,3 C 95 % 1008,2 hPa 0,0 l/m 0 min 0 min 145 W/m 3,2 km/h (1 Bft) 95,74 %
11.05.2021 09:36 14,1 C 14,4 C 12,3 C 95 % 1008,2 hPa 0,0 l/m 0 min 0 min 158 W/m 3,2 km/h (1 Bft) 97,96 %
11.05.2021 09:38 14,1 C 14,4 C 12,3 C 95 % 1008,2 hPa 0,0 l/m 0 min 0 min 169 W/m 6,4 km/h (2 Bft) 95,74 %
11.05.2021 09:40 14,1 C 14,4 C 12,3 C 95 % 1008,1 hPa 0,0 l/m 0 min 0 min 179 W/m 3,2 km/h (1 Bft) 97,87 %
11.05.2021 09:42 14,1 C 14,4 C 12,3 C 95 % 1008,1 hPa 0,0 l/m 0 min 0 min 186 W/m 6,4 km/h (2 Bft) 97,96 %
11.05.2021 09:44 14,1 C 14,4 C 12,3 C 95 % 1008,1 hPa 0,0 l/m 0 min 0 min 186 W/m 0,0 km/h (0 Bft) 95,74 %
11.05.2021 09:46 14,2 C 15,0 C 12,8 C 95 % 1008,2 hPa 0,0 l/m 0 min 0 min 179 W/m 3,2 km/h (1 Bft) 97,87 %
11.05.2021 09:48 14,2 C 14,4 C 12,8 C 94 % 1008,2 hPa 0,0 l/m 0 min 0 min 167 W/m 6,4 km/h (2 Bft) 97,87 %
11.05.2021 09:50 14,2 C 14,4 C 12,8 C 94 % 1008,2 hPa 0,0 l/m 0 min 0 min 153 W/m 6,4 km/h (2 Bft) 97,14 %
11.05.2021 09:52 14,2 C 14,4 C 12,8 C 94 % 1008,2 hPa 0,0 l/m 0 min 0 min 146 W/m 9,7 km/h (2 Bft) 100,00 %
11.05.2021 09:54 14,2 C 14,4 C 12,8 C 94 % 1008,2 hPa 0,0 l/m 0 min 0 min 144 W/m 3,2 km/h (1 Bft) 97,87 %
11.05.2021 09:56 14,2 C 14,4 C 12,8 C 94 % 1008,2 hPa 0,0 l/m 0 min 0 min 144 W/m 0,0 km/h (0 Bft) 98,00 %
11.05.2021 09:58 14,2 C 14,4 C 12,8 C 94 % 1008,2 hPa 0,0 l/m 0 min 0 min 141 W/m 3,2 km/h (1 Bft) 97,14 %
11.05.2021 10:00 14,2 C 14,4 C 12,8 C 94 % 1008,2 hPa 0,0 l/m 0 min 0 min 136 W/m 3,2 km/h (1 Bft) 97,87 %
11.05.2021 10:02 14,2 C 14,4 C 12,8 C 93 % 1008,2 hPa 0,0 l/m 0 min 0 min 129 W/m 3,2 km/h (1 Bft) 97,87 %
11.05.2021 10:04 14,2 C 14,4 C 12,8 C 93 % 1008,2 hPa 0,0 l/m 0 min 0 min 122 W/m 3,2 km/h (1 Bft) 97,87 %
11.05.2021 10:06 14,2 C 14,4 C 12,8 C 93 % 1008,3 hPa 0,0 l/m 0 min 0 min 106 W/m 6,4 km/h (2 Bft) 97,83 %
11.05.2021 10:08 14,2 C 14,4 C 12,8 C 93 % 1008,2 hPa 0,0 l/m 0 min 0 min 104 W/m 3,2 km/h (1 Bft) 97,87 %
11.05.2021 10:10 14,2 C 14,4 C 12,8 C 93 % 1008,2 hPa 0,0 l/m 0 min 0 min 116 W/m 3,2 km/h (1 Bft) 97,87 %
11.05.2021 10:12 14,3 C 14,4 C 12,8 C 93 % 1008,2 hPa 0,0 l/m 0 min 0 min 138 W/m 3,2 km/h (1 Bft) 96,23 %
11.05.2021 10:14 14,3 C 14,4 C 12,8 C 92 % 1008,2 hPa 0,0 l/m 0 min 0 min 163 W/m 6,4 km/h (2 Bft) 97,87 %
11.05.2021 10:16 14,4 C 14,4 C 12,8 C 92 % 1008,1 hPa 0,0 l/m 0 min 0 min 171 W/m 3,2 km/h (1 Bft) 98,00 %
11.05.2021 10:18 14,4 C 15,0 C 13,4 C 92 % 1008,1 hPa 0,0 l/m 0 min 0 min 223 W/m 3,2 km/h (1 Bft) 97,96 %
11.05.2021 10:20 14,4 C 15,6 C 13,4 C 93 % 1008,1 hPa 0,0 l/m 0 min 0 min 306 W/m 3,2 km/h (1 Bft) 97,87 %
11.05.2021 10:22 14,5 C 15,6 C 13,9 C 92 % 1008,0 hPa 0,0 l/m 2 min 0 min 353 W/m 3,2 km/h (1 Bft) 97,14 %
11.05.2021 10:24 14,5 C 16,1 C 13,9 C 92 % 1007,9 hPa 0,0 l/m 2 min 0 min 335 W/m 6,4 km/h (2 Bft) 97,87 %
11.05.2021 10:26 14,6 C 16,1 C 14,5 C 92 % 1007,9 hPa 0,0 l/m 2 min 0 min 333 W/m 6,4 km/h (2 Bft) 96,23 %
11.05.2021 10:28 14,7 C 16,7 C 15,0 C 92 % 1007,9 hPa 0,0 l/m 2 min 0 min 481 W/m 0,0 km/h (0 Bft) 94,00 %
11.05.2021 10:30 14,8 C 17,2 C 15,6 C 92 % 1007,9 hPa 0,0 l/m 2 min 0 min 451 W/m 0,0 km/h (0 Bft) 97,87 %
11.05.2021 10:32 14,9 C 17,8 C 15,6 C 92 % 1007,9 hPa 0,0 l/m 2 min 0 min 337 W/m 3,2 km/h (1 Bft) 97,87 %
11.05.2021 10:34 14,9 C 17,2 C 15,6 C 91 % 1008,0 hPa 0,0 l/m 0 min 0 min 270 W/m 3,2 km/h (1 Bft) 97,96 %
11.05.2021 10:36 15,0 C 17,2 C 15,0 C 91 % 1008,0 hPa 0,0 l/m 0 min 0 min 261 W/m 0,0 km/h (0 Bft) 97,83 %
11.05.2021 10:38 15,0 C 17,2 C 15,0 C 91 % 1008,0 hPa 0,0 l/m 0 min 0 min 272 W/m 3,2 km/h (1 Bft) 100,00 %
11.05.2021 10:40 15,1 C 17,2 C 15,0 C 91 % 1008,0 hPa 0,0 l/m 0 min 0 min 302 W/m 0,0 km/h (0 Bft) 100,00 %
11.05.2021 10:42 15,1 C 17,2 C 15,0 C 90 % 1008,0 hPa 0,0 l/m 2 min 0 min 350 W/m 3,2 km/h (1 Bft) 98,00 %
11.05.2021 10:44 15,3 C 17,8 C 15,0 C 90 % 1008,0 hPa 0,0 l/m 2 min 0 min 448 W/m 0,0 km/h (0 Bft) 100,00 %
11.05.2021 10:46 15,4 C 17,8 C 15,6 C 90 % 1008,0 hPa 0,0 l/m 2 min 0 min 433 W/m 3,2 km/h (1 Bft) 98,00 %
11.05.2021 10:48 15,5 C 17,8 C 16,1 C 90 % 1007,9 hPa 0,0 l/m 2 min 0 min 440 W/m 3,2 km/h (1 Bft) 100,00 %
11.05.2021 10:50 15,6 C 17,8 C 15,6 C 90 % 1008,0 hPa 0,0 l/m 0 min 0 min 318 W/m 3,2 km/h (1 Bft) 100,00 %
11.05.2021 10:52 15,7 C 17,8 C 15,6 C 89 % 1008,0 hPa 0,0 l/m 0 min 0 min 264 W/m 6,4 km/h (2 Bft) 100,00 %
11.05.2021 10:54 15,8 C 17,2 C 15,6 C 88 % 1008,1 hPa 0,0 l/m 0 min 0 min 270 W/m 3,2 km/h (1 Bft) 100,00 %
11.05.2021 10:56 15,8 C 17,2 C 15,6 C 88 % 1008,2 hPa 0,0 l/m 0 min 0 min 257 W/m 3,2 km/h (1 Bft) 100,00 %
11.05.2021 10:58 15,9 C 17,2 C 15,0 C 88 % 1008,3 hPa 0,0 l/m 0 min 0 min 280 W/m 3,2 km/h (1 Bft) 100,00 %
11.05.2021 11:00 15,9 C 17,2 C 15,6 C 88 % 1008,3 hPa 0,0 l/m 2 min 0 min 364 W/m 6,4 km/h (2 Bft) 100,00 %
11.05.2021 11:02 16,0 C 17,2 C 15,6 C 88 % 1008,3 hPa 0,0 l/m 2 min 0 min 385 W/m 6,4 km/h (2 Bft) 100,00 %
11.05.2021 11:04 16,0 C 17,2 C 15,6 C 87 % 1008,3 hPa 0,0 l/m 2 min 0 min 419 W/m 6,4 km/h (2 Bft) 98,00 %
11.05.2021 11:06 16,1 C 17,2 C 15,6 C 87 % 1008,3 hPa 0,0 l/m 0 min 0 min 342 W/m 6,4 km/h (2 Bft) 97,87 %
11.05.2021 11:08 16,1 C 17,2 C 15,6 C 87 % 1008,3 hPa 0,0 l/m 0 min 0 min 275 W/m 3,2 km/h (1 Bft) 97,96 %
11.05.2021 11:10 16,2 C 17,2 C 15,6 C 86 % 1008,4 hPa 0,0 l/m 0 min 0 min 352 W/m 6,4 km/h (2 Bft) 100,00 %
11.05.2021 11:12 16,2 C 17,8 C 16,1 C 86 % 1008,2 hPa 0,0 l/m 2 min 0 min 419 W/m 6,4 km/h (2 Bft) 100,00 %
11.05.2021 11:14 16,3 C 17,8 C 16,1 C 86 % 1008,1 hPa 0,0 l/m 2 min 0 min 419 W/m 3,2 km/h (1 Bft) 100,00 %
11.05.2021 11:16 16,4 C 17,8 C 16,1 C 85 % 1008,1 hPa 0,0 l/m 0 min 0 min 345 W/m 3,2 km/h (1 Bft) 97,87 %
11.05.2021 11:18 16,4 C 17,8 C 16,1 C 85 % 1008,1 hPa 0,0 l/m 0 min 0 min 283 W/m 3,2 km/h (1 Bft) 100,00 %
11.05.2021 11:20 16,4 C 17,2 C 15,6 C 85 % 1008,2 hPa 0,0 l/m 0 min 0 min 240 W/m 0,0 km/h (0 Bft) 100,00 %
11.05.2021 11:22 16,4 C 17,2 C 15,6 C 85 % 1008,2 hPa 0,0 l/m 0 min 0 min 239 W/m 3,2 km/h (1 Bft) 100,00 %
11.05.2021 11:24 16,5 C 17,2 C 15,6 C 85 % 1008,1 hPa 0,0 l/m 0 min 0 min 287 W/m 9,7 km/h (2 Bft) 97,87 %
11.05.2021 11:26 16,5 C 17,8 C 15,6 C 85 % 1008,0 hPa 0,0 l/m 2 min 0 min 389 W/m 6,4 km/h (2 Bft) 100,00 %
11.05.2021 11:28 16,5 C 17,2 C 15,6 C 85 % 1007,9 hPa 0,0 l/m 2 min 0 min 384 W/m 6,4 km/h (2 Bft) 100,00 %
11.05.2021 11:30 16,6 C 17,8 C 15,6 C 85 % 1007,8 hPa 0,0 l/m 0 min 0 min 329 W/m 3,2 km/h (1 Bft) 100,00 %
11.05.2021 11:32 16,6 C 17,8 C 16,1 C 85 % 1007,7 hPa 0,0 l/m 0 min 0 min 345 W/m 6,4 km/h (2 Bft) 100,00 %
11.05.2021 11:34 16,7 C 18,9 C 16,7 C 86 % 1007,8 hPa 0,0 l/m 2 min 0 min 576 W/m 3,2 km/h (1 Bft) 100,00 %
11.05.2021 11:36 16,8 C 20,0 C 17,3 C 86 % 1007,8 hPa 0,0 l/m 2 min 0 min 890 W/m 6,4 km/h (2 Bft) 95,74 %
11.05.2021 11:38 16,9 C 20,6 C 17,8 C 85 % 1007,7 hPa 0,0 l/m 2 min 0 min 925 W/m 12,9 km/h (3 Bft) 100,00 %
11.05.2021 11:40 17,0 C 20,0 C 17,3 C 84 % 1007,7 hPa 0,0 l/m 2 min 0 min 836 W/m 9,7 km/h (2 Bft) 97,87 %
11.05.2021 11:42 17,1 C 20,6 C 17,8 C 84 % 1007,7 hPa 0,0 l/m 2 min 0 min 879 W/m 6,4 km/h (2 Bft) 97,87 %
11.05.2021 11:44 17,2 C 21,1 C 18,9 C 84 % 1007,7 hPa 0,0 l/m 2 min 0 min 937 W/m 6,4 km/h (2 Bft) 97,14 %
11.05.2021 11:46 17,4 C 21,1 C 18,9 C 83 % 1007,8 hPa 0,0 l/m 2 min 0 min 913 W/m 9,7 km/h (2 Bft) 96,23 %
11.05.2021 11:48 17,4 C 20,6 C 18,4 C 83 % 1007,8 hPa 0,0 l/m 2 min 0 min 460 W/m 6,4 km/h (2 Bft) 96,00 %
11.05.2021 11:50 17,5 C 20,6 C 18,4 C 83 % 1007,8 hPa 0,0 l/m 2 min 0 min 558 W/m 3,2 km/h (1 Bft) 97,96 %
11.05.2021 11:52 17,7 C 21,1 C 18,9 C 83 % 1007,8 hPa 0,0 l/m 2 min 0 min 581 W/m 3,2 km/h (1 Bft) 97,87 %
11.05.2021 11:54 17,9 C 21,7 C 20,0 C 83 % 1007,7 hPa 0,0 l/m 2 min 0 min 912 W/m 9,7 km/h (2 Bft) 97,87 %
11.05.2021 11:56 18,0 C 21,1 C 20,0 C 81 % 1007,7 hPa 0,0 l/m 2 min 0 min 849 W/m 6,4 km/h (2 Bft) 93,62 %
11.05.2021 11:58 18,1 C 21,7 C 21,1 C 81 % 1007,7 hPa 0,0 l/m 2 min 0 min 882 W/m 9,7 km/h (2 Bft) 97,83 %
11.05.2021 12:00 18,1 C 21,7 C 21,7 C 80 % 1007,7 hPa 0,0 l/m 2 min 0 min 1060 W/m 6,4 km/h (2 Bft) 97,22 %
11.05.2021 12:02 18,1 C 20,6 C 20,0 C 79 % 1007,7 hPa 0,0 l/m 2 min 0 min 542 W/m 6,4 km/h (2 Bft) 98,11 %
11.05.2021 12:04 18,1 C 20,6 C 19,5 C 79 % 1007,7 hPa 0,0 l/m 2 min 0 min 443 W/m 6,4 km/h (2 Bft) 95,74 %
11.05.2021 12:08 18,1 C 20,6 C 20,0 C 79 % 1007,7 hPa 0,0 l/m 4 min 0 min 535 W/m 12,9 km/h (3 Bft) 96,77 %
11.05.2021 12:10 18,2 C 20,6 C 20,6 C 78 % 1007,7 hPa 0,0 l/m 2 min 0 min 676 W/m 12,9 km/h (3 Bft) 98,00 %
11.05.2021 12:12 18,2 C 20,6 C 20,0 C 78 % 1007,6 hPa 0,0 l/m 2 min 0 min 394 W/m 16,1 km/h (3 Bft) 97,87 %
11.05.2021 12:14 18,3 C 20,0 C 18,9 C 77 % 1007,7 hPa 0,0 l/m 0 min 0 min 242 W/m 16,1 km/h (3 Bft) 93,88 %
11.05.2021 12:16 18,3 C 19,4 C 17,8 C 77 % 1007,7 hPa 0,0 l/m 0 min 0 min 177 W/m 12,9 km/h (3 Bft) 97,87 %
11.05.2021 12:18 18,3 C 18,9 C 17,3 C 76 % 1007,6 hPa 0,0 l/m 0 min 0 min 179 W/m 6,4 km/h (2 Bft) 97,87 %
11.05.2021 12:20 18,1 C 18,3 C 16,7 C 76 % 1007,7 hPa 0,0 l/m 0 min 0 min 175 W/m 3,2 km/h (1 Bft) 97,14 %
11.05.2021 12:22 18,0 C 17,8 C 16,1 C 77 % 1007,6 hPa 0,0 l/m 0 min 0 min 148 W/m 6,4 km/h (2 Bft) 96,23 %
11.05.2021 12:24 17,8 C 17,8 C 15,6 C 78 % 1007,6 hPa 0,0 l/m 0 min 0 min 131 W/m 9,7 km/h (2 Bft) 93,62 %
11.05.2021 12:26 17,8 C 17,2 C 15,6 C 78 % 1007,6 hPa 0,0 l/m 0 min 0 min 136 W/m 9,7 km/h (2 Bft) 95,74 %
11.05.2021 12:28 17,7 C 17,2 C 15,6 C 79 % 1007,6 hPa 0,0 l/m 0 min 0 min 144 W/m 6,4 km/h (2 Bft) 94,00 %
11.05.2021 12:30 17,6 C 17,2 C 15,0 C 79 % 1007,6 hPa 0,0 l/m 0 min 0 min 128 W/m 6,4 km/h (2 Bft) 93,48 %
11.05.2021 12:32 17,6 C 17,2 C 15,0 C 79 % 1007,6 hPa 0,0 l/m 0 min 0 min 108 W/m 3,2 km/h (1 Bft) 93,62 %
11.05.2021 12:34 17,5 C 17,2 C 15,0 C 79 % 1007,6 hPa 0,0 l/m 0 min 0 min 92 W/m 3,2 km/h (1 Bft) 95,74 %
11.05.2021 12:36 17,4 C 17,2 C 15,0 C 79 % 1007,7 hPa 0,0 l/m 0 min 0 min 77 W/m 0,0 km/h (0 Bft) 95,74 %
11.05.2021 12:38 17,4 C 16,7 C 15,0 C 79 % 1007,7 hPa 0,0 l/m 0 min 0 min 67 W/m 12,9 km/h (3 Bft) 95,74 %
11.05.2021 12:40 17,3 C 16,7 C 14,5 C 79 % 1007,7 hPa 0,0 l/m 0 min 0 min 63 W/m 9,7 km/h (2 Bft) 91,49 %
11.05.2021 12:42 17,3 C 16,7 C 14,5 C 79 % 1007,7 hPa 0,0 l/m 0 min 0 min 60 W/m 9,7 km/h (2 Bft) 95,92 %
11.05.2021 12:44 17,2 C 16,7 C 14,5 C 79 % 1007,7 hPa 0,0 l/m 0 min 0 min 53 W/m 9,7 km/h (2 Bft) 91,30 %
11.05.2021 12:46 17,2 C 16,7 C 14,5 C 79 % 1007,7 hPa 0,0 l/m 0 min 0 min 49 W/m 6,4 km/h (2 Bft) 93,62 %
11.05.2021 12:48 17,1 C 16,7 C 14,5 C 80 % 1007,7 hPa 0,0 l/m 0 min 0 min 53 W/m 9,7 km/h (2 Bft) 95,74 %
11.05.2021 12:50 17,1 C 16,1 C 13,9 C 80 % 1007,6 hPa 0,0 l/m 0 min 0 min 60 W/m 12,9 km/h (3 Bft) 94,29 %
11.05.2021 12:52 17,1 C 16,1 C 13,9 C 80 % 1007,6 hPa 0,0 l/m 0 min 0 min 63 W/m 12,9 km/h (3 Bft) 96,30 %
11.05.2021 12:54 17,0 C 16,1 C 13,9 C 80 % 1007,6 hPa 0,0 l/m 0 min 0 min 63 W/m 12,9 km/h (3 Bft) 95,92 %
11.05.2021 12:56 17,0 C 16,1 C 13,9 C 80 % 1007,5 hPa 0,0 l/m 0 min 0 min 60 W/m 9,7 km/h (2 Bft) 95,92 %
11.05.2021 12:58 17,0 C 16,1 C 13,9 C 81 % 1007,6 hPa 0,0 l/m 0 min 0 min 58 W/m 16,1 km/h (3 Bft) 91,67 %
11.05.2021 13:00 16,9 C 16,1 C 13,9 C 81 % 1007,5 hPa 0,0 l/m 0 min 0 min 57 W/m 9,7 km/h (2 Bft) 94,34 %
11.05.2021 13:02 16,9 C 16,1 C 13,9 C 81 % 1007,5 hPa 0,0 l/m 0 min 0 min 54 W/m 3,2 km/h (1 Bft) 96,00 %
11.05.2021 13:04 16,9 C 16,1 C 13,9 C 81 % 1007,4 hPa 0,0 l/m 0 min 0 min 51 W/m 6,4 km/h (2 Bft) 93,48 %
11.05.2021 13:06 16,8 C 16,1 C 13,9 C 82 % 1007,4 hPa 0,0 l/m 0 min 0 min 49 W/m 6,4 km/h (2 Bft) 97,87 %
11.05.2021 13:08 16,7 C 16,1 C 13,4 C 82 % 1007,4 hPa 0,0 l/m 0 min 0 min 49 W/m 6,4 km/h (2 Bft) 97,87 %
11.05.2021 13:10 16,6 C 15,6 C 13,4 C 83 % 1007,5 hPa 0,0 l/m 0 min 2 min 48 W/m 9,7 km/h (2 Bft) 95,74 %
11.05.2021 13:12 16,6 C 15,6 C 13,4 C 83 % 1007,5 hPa 0,0 l/m 0 min 2 min 46 W/m 16,1 km/h (3 Bft) 97,87 %
11.05.2021 13:14 16,5 C 15,6 C 13,4 C 83 % 1007,6 hPa 0,0 l/m 0 min 0 min 44 W/m 9,7 km/h (2 Bft) 97,87 %
11.05.2021 13:16 16,5 C 15,6 C 13,4 C 83 % 1007,7 hPa 0,0 l/m 0 min 0 min 41 W/m 9,7 km/h (2 Bft) 97,83 %
11.05.2021 13:18 16,5 C 15,6 C 13,4 C 84 % 1007,7 hPa 0,0 l/m 0 min 2 min 39 W/m 3,2 km/h (1 Bft) 98,00 %
11.05.2021 13:20 16,4 C 15,6 C 13,4 C 84 % 1007,7 hPa 0,0 l/m 0 min 0 min 37 W/m 6,4 km/h (2 Bft) 97,14 %
11.05.2021 13:22 16,4 C 15,6 C 13,4 C 84 % 1007,7 hPa 0,0 l/m 0 min 2 min 37 W/m 6,4 km/h (2 Bft) 98,11 %
11.05.2021 13:24 16,4 C 15,0 C 13,4 C 85 % 1007,7 hPa 0,0 l/m 0 min 2 min 36 W/m 6,4 km/h (2 Bft) 97,87 %
11.05.2021 13:26 16,3 C 15,0 C 12,8 C 85 % 1007,8 hPa 0,0 l/m 0 min 2 min 35 W/m 3,2 km/h (1 Bft) 100,00 %
11.05.2021 13:28 16,3 C 15,0 C 12,8 C 85 % 1007,8 hPa 0,0 l/m 0 min 2 min 37 W/m 3,2 km/h (1 Bft) 97,83 %
11.05.2021 13:30 16,3 C 15,0 C 12,8 C 86 % 1007,8 hPa 0,0 l/m 0 min 2 min 37 W/m 9,7 km/h (2 Bft) 100,00 %
11.05.2021 13:32 16,1 C 15,0 C 12,8 C 86 % 1007,8 hPa 0,0 l/m 0 min 2 min 39 W/m 9,7 km/h (2 Bft) 100,00 %
11.05.2021 13:34 16,0 C 15,0 C 12,3 C 87 % 1007,8 hPa 0,0 l/m 0 min 2 min 39 W/m 12,9 km/h (3 Bft) 97,87 %
11.05.2021 13:36 15,8 C 14,4 C 12,3 C 88 % 1007,8 hPa 0,0 l/m 0 min 2 min 42 W/m 6,4 km/h (2 Bft) 100,00 %
11.05.2021 13:38 15,7 C 14,4 C 12,3 C 88 % 1007,8 hPa 0,2 l/m 0 min 2 min 44 W/m 3,2 km/h (1 Bft) 100,00 %
11.05.2021 13:40 15,6 C 14,4 C 12,3 C 88 % 1007,8 hPa 0,0 l/m 0 min 2 min 44 W/m 3,2 km/h (1 Bft) 97,83 %
11.05.2021 13:42 15,6 C 14,4 C 12,3 C 89 % 1007,8 hPa 0,0 l/m 0 min 2 min 44 W/m 3,2 km/h (1 Bft) 100,00 %
11.05.2021 13:44 15,5 C 14,4 C 12,3 C 89 % 1007,9 hPa 0,0 l/m 0 min 2 min 43 W/m 3,2 km/h (1 Bft) 100,00 %
11.05.2021 13:46 15,5 C 13,9 C 12,3 C 90 % 1008,0 hPa 0,0 l/m 0 min 2 min 39 W/m 3,2 km/h (1 Bft) 97,87 %
11.05.2021 13:48 15,4 C 13,9 C 11,7 C 90 % 1008,0 hPa 0,0 l/m 0 min 2 min 37 W/m 3,2 km/h (1 Bft) 100,00 %
11.05.2021 13:50 15,4 C 13,9 C 11,7 C 90 % 1008,1 hPa 0,2 l/m 0 min 2 min 40 W/m 3,2 km/h (1 Bft) 100,00 %
11.05.2021 13:52 15,4 C 13,9 C 11,7 C 91 % 1008,0 hPa 0,0 l/m 0 min 2 min 45 W/m 3,2 km/h (1 Bft) 100,00 %
11.05.2021 13:54 15,3 C 13,9 C 11,7 C 91 % 1008,0 hPa 0,2 l/m 0 min 2 min 49 W/m 3,2 km/h (1 Bft) 100,00 %
11.05.2021 13:56 15,3 C 13,9 C 12,3 C 91 % 1008,0 hPa 0,2 l/m 0 min 2 min 49 W/m 3,2 km/h (1 Bft) 97,83 %
11.05.2021 13:58 15,2 C 13,9 C 11,7 C 91 % 1008,1 hPa 0,0 l/m 0 min 2 min 47 W/m 0,0 km/h (0 Bft) 100,00 %
11.05.2021 14:00 15,2 C 13,9 C 11,7 C 92 % 1008,1 hPa 0,2 l/m 0 min 2 min 46 W/m 3,2 km/h (1 Bft) 100,00 %
11.05.2021 14:02 15,1 C 13,9 C 11,7 C 92 % 1008,1 hPa 0,2 l/m 0 min 2 min 47 W/m 0,0 km/h (0 Bft) 97,87 %
11.05.2021 14:04 15,1 C 13,9 C 11,7 C 92 % 1008,1 hPa 0,0 l/m 0 min 2 min 51 W/m 3,2 km/h (1 Bft) 100,00 %
11.05.2021 14:06 15,0 C 13,9 C 11,7 C 92 % 1008,2 hPa 0,2 l/m 0 min 2 min 57 W/m 0,0 km/h (0 Bft) 100,00 %
11.05.2021 14:08 15,0 C 13,9 C 11,7 C 92 % 1008,2 hPa 0,2 l/m 0 min 2 min 63 W/m 0,0 km/h (0 Bft) 100,00 %
11.05.2021 14:10 15,0 C 13,3 C 11,7 C 92 % 1008,2 hPa 0,0 l/m 0 min 2 min 66 W/m 3,2 km/h (1 Bft) 97,87 %
11.05.2021 14:12 15,0 C 13,3 C 11,1 C 92 % 1008,3 hPa 0,0 l/m 0 min 2 min 71 W/m 0,0 km/h (0 Bft) 100,00 %
11.05.2021 14:14 15,0 C 13,3 C 11,7 C 93 % 1008,2 hPa 0,2 l/m 0 min 2 min 78 W/m 0,0 km/h (0 Bft) 100,00 %
11.05.2021 14:16 15,0 C 13,9 C 11,7 C 93 % 1008,2 hPa 0,0 l/m 0 min 2 min 84 W/m 0,0 km/h (0 Bft) 100,00 %
11.05.2021 14:18 14,9 C 13,9 C 11,7 C 93 % 1008,2 hPa 0,2 l/m 0 min 2 min 93 W/m 3,2 km/h (1 Bft) 100,00 %
11.05.2021 14:20 14,8 C 13,9 C 11,7 C 93 % 1008,3 hPa 0,2 l/m 0 min 2 min 97 W/m 0,0 km/h (0 Bft) 100,00 %
11.05.2021 14:22 14,8 C 13,3 C 11,7 C 93 % 1008,3 hPa 0,2 l/m 0 min 2 min 95 W/m 0,0 km/h (0 Bft) 100,00 %
11.05.2021 14:24 14,8 C 13,3 C 11,7 C 93 % 1008,3 hPa 0,2 l/m 0 min 2 min 93 W/m 3,2 km/h (1 Bft) 100,00 %
11.05.2021 14:26 14,8 C 13,3 C 11,7 C 93 % 1008,3 hPa 0,2 l/m 0 min 2 min 95 W/m 3,2 km/h (1 Bft) 100,00 %
11.05.2021 14:28 14,8 C 13,3 C 11,7 C 94 % 1008,3 hPa 0,0 l/m 0 min 2 min 90 W/m 3,2 km/h (1 Bft) 100,00 %
11.05.2021 14:30 14,7 C 13,3 C 11,7 C 94 % 1008,3 hPa 0,2 l/m 0 min 2 min 87 W/m 3,2 km/h (1 Bft) 100,00 %
11.05.2021 14:32 14,6 C 13,3 C 11,7 C 94 % 1008,4 hPa 0,0 l/m 0 min 2 min 90 W/m 3,2 km/h (1 Bft) 97,87 %
11.05.2021 14:34 14,6 C 13,3 C 11,7 C 94 % 1008,5 hPa 0,0 l/m 0 min 2 min 87 W/m 3,2 km/h (1 Bft) 100,00 %
11.05.2021 14:36 14,6 C 13,3 C 11,7 C 94 % 1008,5 hPa 0,2 l/m 0 min 2 min 86 W/m 3,2 km/h (1 Bft) 100,00 %
11.05.2021 14:38 14,6 C 13,3 C 11,7 C 94 % 1008,4 hPa 0,0 l/m 0 min 2 min 89 W/m 3,2 km/h (1 Bft) 100,00 %
11.05.2021 14:40 14,6 C 13,3 C 11,7 C 95 % 1008,4 hPa 0,2 l/m 0 min 2 min 98 W/m 3,2 km/h (1 Bft) 100,00 %
11.05.2021 14:42 14,5 C 13,3 C 11,7 C 95 % 1008,4 hPa 0,2 l/m 0 min 2 min 106 W/m 3,2 km/h (1 Bft) 97,83 %
11.05.2021 14:44 14,5 C 13,3 C 11,7 C 95 % 1008,4 hPa 0,2 l/m 0 min 2 min 110 W/m 3,2 km/h (1 Bft) 97,87 %
11.05.2021 14:46 14,5 C 13,3 C 11,7 C 95 % 1008,3 hPa 0,2 l/m 0 min 2 min 112 W/m 6,4 km/h (2 Bft) 100,00 %
11.05.2021 14:48 14,4 C 13,3 C 11,7 C 95 % 1008,3 hPa 0,0 l/m 0 min 2 min 116 W/m 3,2 km/h (1 Bft) 100,00 %
11.05.2021 14:50 14,4 C 13,3 C 11,7 C 95 % 1008,2 hPa 0,2 l/m 0 min 2 min 145 W/m 6,4 km/h (2 Bft) 100,00 %
11.05.2021 14:52 14,3 C 13,3 C 11,7 C 95 % 1008,3 hPa 0,0 l/m 0 min 2 min 169 W/m 6,4 km/h (2 Bft) 97,83 %
11.05.2021 14:54 14,3 C 13,3 C 11,7 C 96 % 1008,3 hPa 0,2 l/m 0 min 2 min 169 W/m 9,7 km/h (2 Bft) 100,00 %
11.05.2021 14:56 14,3 C 13,3 C 11,7 C 96 % 1008,3 hPa 0,0 l/m 0 min 2 min 167 W/m 9,7 km/h (2 Bft) 100,00 %
11.05.2021 14:58 14,2 C 13,3 C 11,7 C 96 % 1008,3 hPa 0,0 l/m 0 min 2 min 172 W/m 3,2 km/h (1 Bft) 98,15 %
11.05.2021 15:00 14,2 C 13,3 C 11,7 C 96 % 1008,3 hPa 0,2 l/m 0 min 2 min 174 W/m 6,4 km/h (2 Bft) 97,87 %
11.05.2021 15:02 14,2 C 13,3 C 11,7 C 96 % 1008,3 hPa 0,0 l/m 0 min 2 min 167 W/m 6,4 km/h (2 Bft) 97,96 %
11.05.2021 15:04 14,2 C 13,3 C 11,7 C 96 % 1008,3 hPa 0,0 l/m 0 min 2 min 161 W/m 6,4 km/h (2 Bft) 100,00 %
11.05.2021 15:06 14,2 C 13,3 C 11,7 C 96 % 1008,3 hPa 0,0 l/m 0 min 2 min 160 W/m 6,4 km/h (2 Bft) 100,00 %
11.05.2021 15:08 14,2 C 13,3 C 11,7 C 96 % 1008,2 hPa 0,0 l/m 0 min 2 min 162 W/m 3,2 km/h (1 Bft) 100,00 %
11.05.2021 15:10 14,2 C 13,3 C 11,7 C 97 % 1008,2 hPa 0,0 l/m 0 min 2 min 165 W/m 6,4 km/h (2 Bft) 97,96 %
11.05.2021 15:12 14,2 C 13,3 C 11,7 C 97 % 1008,2 hPa 0,0 l/m 0 min 2 min 172 W/m 6,4 km/h (2 Bft) 97,14 %
11.05.2021 15:14 14,2 C 13,3 C 11,7 C 97 % 1008,2 hPa 0,0 l/m 0 min 2 min 187 W/m 9,7 km/h (2 Bft) 97,87 %
11.05.2021 15:16 14,2 C 13,3 C 11,7 C 97 % 1008,2 hPa 0,0 l/m 0 min 2 min 203 W/m 9,7 km/h (2 Bft) 97,87 %
11.05.2021 15:18 14,1 C 13,3 C 11,7 C 97 % 1008,1 hPa 0,0 l/m 0 min 2 min 203 W/m 6,4 km/h (2 Bft) 98,11 %
11.05.2021 15:20 14,1 C 13,3 C 11,7 C 97 % 1008,2 hPa 0,0 l/m 0 min 2 min 194 W/m 9,7 km/h (2 Bft) 96,00 %
11.05.2021 15:22 14,0 C 13,3 C 11,7 C 97 % 1008,2 hPa 0,0 l/m 0 min 2 min 176 W/m 9,7 km/h (2 Bft) 95,92 %
11.05.2021 15:24 14,0 C 13,3 C 11,7 C 97 % 1008,3 hPa 0,0 l/m 0 min 2 min 156 W/m 12,9 km/h (3 Bft) 97,14 %
11.05.2021 15:26 14,0 C 13,3 C 11,7 C 97 % 1008,3 hPa 0,0 l/m 0 min 2 min 154 W/m 6,4 km/h (2 Bft) 94,34 %
11.05.2021 15:28 14,0 C 13,3 C 11,7 C 97 % 1008,3 hPa 0,0 l/m 0 min 2 min 163 W/m 9,7 km/h (2 Bft) 94,00 %
11.05.2021 15:30 14,0 C 13,3 C 11,7 C 97 % 1008,2 hPa 0,0 l/m 0 min 2 min 182 W/m 9,7 km/h (2 Bft) 95,74 %
11.05.2021 15:32 14,0 C 13,9 C 11,7 C 97 % 1008,1 hPa 0,0 l/m 0 min 2 min 191 W/m 3,2 km/h (1 Bft) 95,92 %
11.05.2021 15:34 14,1 C 13,9 C 12,3 C 97 % 1008,1 hPa 0,0 l/m 0 min 2 min 192 W/m 3,2 km/h (1 Bft) 91,43 %
11.05.2021 15:36 14,2 C 13,9 C 12,3 C 97 % 1008,1 hPa 0,0 l/m 0 min 2 min 183 W/m 12,9 km/h (3 Bft) 94,34 %
11.05.2021 15:38 14,2 C 13,9 C 12,3 C 97 % 1008,3 hPa 0,0 l/m 0 min 2 min 166 W/m 6,4 km/h (2 Bft) 91,49 %
11.05.2021 15:40 14,2 C 13,9 C 11,7 C 97 % 1008,3 hPa 0,0 l/m 0 min 2 min 143 W/m 6,4 km/h (2 Bft) 95,74 %
11.05.2021 15:42 14,1 C 13,9 C 11,7 C 97 % 1008,4 hPa 0,2 l/m 0 min 2 min 133 W/m 3,2 km/h (1 Bft) 91,49 %
11.05.2021 15:44 14,2 C 13,9 C 12,3 C 97 % 1008,3 hPa 0,0 l/m 0 min 2 min 150 W/m 3,2 km/h (1 Bft) 92,00 %
11.05.2021 15:46 14,2 C 13,9 C 12,3 C 97 % 1008,3 hPa 0,0 l/m 0 min 2 min 183 W/m 6,4 km/h (2 Bft) 93,88 %
11.05.2021 15:48 14,2 C 13,9 C 12,3 C 97 % 1008,3 hPa 0,0 l/m 0 min 0 min 210 W/m 6,4 km/h (2 Bft) 91,43 %
11.05.2021 15:50 14,2 C 13,9 C 12,3 C 97 % 1008,3 hPa 0,0 l/m 0 min 0 min 211 W/m 6,4 km/h (2 Bft) 94,34 %
11.05.2021 15:52 14,2 C 13,9 C 12,3 C 97 % 1008,2 hPa 0,0 l/m 0 min 0 min 205 W/m 9,7 km/h (2 Bft) 91,49 %
11.05.2021 15:54 14,2 C 13,9 C 12,3 C 97 % 1008,2 hPa 0,0 l/m 0 min 2 min 194 W/m 3,2 km/h (1 Bft) 94,00 %
11.05.2021 15:56 14,2 C 13,9 C 12,3 C 97 % 1008,2 hPa 0,0 l/m 0 min 0 min 186 W/m 3,2 km/h (1 Bft) 89,80 %
11.05.2021 15:58 14,2 C 13,9 C 12,3 C 97 % 1008,2 hPa 0,0 l/m 0 min 0 min 182 W/m 3,2 km/h (1 Bft) 93,62 %
11.05.2021 16:00 14,2 C 13,9 C 12,3 C 97 % 1008,2 hPa 0,0 l/m 0 min 0 min 178 W/m 9,7 km/h (2 Bft) 97,14 %
11.05.2021 16:02 14,2 C 13,9 C 12,3 C 97 % 1008,1 hPa 0,0 l/m 0 min 0 min 177 W/m 9,7 km/h (2 Bft) 95,74 %
11.05.2021 16:04 14,2 C 13,9 C 12,3 C 97 % 1008,1 hPa 0,0 l/m 0 min 0 min 174 W/m 3,2 km/h (1 Bft) 93,62 %
11.05.2021 16:06 14,2 C 13,9 C 12,3 C 97 % 1008,1 hPa 0,0 l/m 0 min 0 min 173 W/m 6,4 km/h (2 Bft) 95,65 %
11.05.2021 16:08 14,2 C 13,9 C 12,3 C 97 % 1008,1 hPa 0,0 l/m 0 min 0 min 166 W/m 3,2 km/h (1 Bft) 95,74 %
11.05.2021 16:10 14,2 C 13,9 C 12,3 C 97 % 1008,2 hPa 0,0 l/m 0 min 0 min 154 W/m 3,2 km/h (1 Bft) 95,74 %
11.05.2021 16:12 14,2 C 13,9 C 12,3 C 97 % 1008,2 hPa 0,0 l/m 0 min 0 min 148 W/m 3,2 km/h (1 Bft) 95,74 %
11.05.2021 16:14 14,2 C 13,9 C 12,3 C 97 % 1008,1 hPa 0,0 l/m 0 min 0 min 152 W/m 3,2 km/h (1 Bft) 97,87 %
11.05.2021 16:16 14,2 C 13,9 C 12,3 C 97 % 1008,1 hPa 0,0 l/m 0 min 0 min 155 W/m 3,2 km/h (1 Bft) 95,74 %
11.05.2021 16:18 14,2 C 13,9 C 12,3 C 97 % 1008,0 hPa 0,0 l/m 0 min 0 min 155 W/m 6,4 km/h (2 Bft) 97,83 %
11.05.2021 16:20 14,2 C 13,9 C 12,3 C 97 % 1008,1 hPa 0,0 l/m 0 min 0 min 155 W/m 3,2 km/h (1 Bft) 98,15 %
11.05.2021 16:22 14,2 C 13,9 C 12,3 C 97 % 1008,1 hPa 0,0 l/m 0 min 0 min 159 W/m 9,7 km/h (2 Bft) 97,83 %
11.05.2021 16:24 14,2 C 13,9 C 12,3 C 97 % 1008,1 hPa 0,0 l/m 0 min 0 min 155 W/m 3,2 km/h (1 Bft) 96,00 %
11.05.2021 16:26 14,2 C 13,9 C 12,3 C 97 % 1008,1 hPa 0,0 l/m 0 min 0 min 145 W/m 3,2 km/h (1 Bft) 97,96 %
11.05.2021 16:28 14,2 C 13,9 C 12,3 C 97 % 1008,2 hPa 0,0 l/m 0 min 0 min 137 W/m 3,2 km/h (1 Bft) 97,22 %
11.05.2021 16:30 14,2 C 13,9 C 12,3 C 97 % 1008,1 hPa 0,0 l/m 0 min 0 min 130 W/m 3,2 km/h (1 Bft) 98,11 %
11.05.2021 16:32 14,2 C 13,9 C 12,3 C 97 % 1008,0 hPa 0,0 l/m 0 min 0 min 127 W/m 6,4 km/h (2 Bft) 98,00 %
11.05.2021 16:34 14,2 C 13,9 C 12,3 C 97 % 1008,0 hPa 0,0 l/m 0 min 0 min 127 W/m 3,2 km/h (1 Bft) 97,83 %
11.05.2021 16:36 14,2 C 13,9 C 12,3 C 97 % 1008,0 hPa 0,0 l/m 0 min 0 min 127 W/m 6,4 km/h (2 Bft) 98,00 %
11.05.2021 16:38 14,2 C 13,9 C 12,3 C 97 % 1008,0 hPa 0,0 l/m 0 min 0 min 126 W/m 0,0 km/h (0 Bft) 97,83 %
11.05.2021 16:40 14,2 C 14,4 C 12,3 C 97 % 1007,9 hPa 0,0 l/m 0 min 0 min 124 W/m 6,4 km/h (2 Bft) 97,87 %
11.05.2021 16:42 14,3 C 14,4 C 12,3 C 97 % 1007,9 hPa 0,0 l/m 0 min 0 min 133 W/m 9,7 km/h (2 Bft) 97,87 %
11.05.2021 16:44 14,3 C 14,4 C 12,3 C 97 % 1007,9 hPa 0,0 l/m 0 min 0 min 140 W/m 6,4 km/h (2 Bft) 97,87 %
11.05.2021 16:46 14,3 C 14,4 C 12,3 C 97 % 1007,9 hPa 0,0 l/m 0 min 0 min 139 W/m 6,4 km/h (2 Bft) 97,14 %
11.05.2021 16:48 14,4 C 14,4 C 12,3 C 97 % 1007,9 hPa 0,0 l/m 0 min 0 min 132 W/m 9,7 km/h (2 Bft) 96,23 %
11.05.2021 16:50 14,4 C 14,4 C 12,3 C 97 % 1008,0 hPa 0,0 l/m 0 min 0 min 125 W/m 9,7 km/h (2 Bft) 97,87 %
11.05.2021 16:52 14,4 C 14,4 C 12,3 C 97 % 1008,0 hPa 0,0 l/m 0 min 0 min 121 W/m 6,4 km/h (2 Bft) 98,00 %
11.05.2021 16:54 14,4 C 14,4 C 12,3 C 97 % 1008,0 hPa 0,0 l/m 0 min 0 min 119 W/m 3,2 km/h (1 Bft) 97,87 %
11.05.2021 16:56 14,4 C 14,4 C 12,3 C 97 % 1007,9 hPa 0,0 l/m 0 min 0 min 124 W/m 3,2 km/h (1 Bft) 95,92 %
11.05.2021 16:58 14,5 C 14,4 C 12,3 C 97 % 1007,9 hPa 0,0 l/m 0 min 0 min 125 W/m 3,2 km/h (1 Bft) 97,87 %
11.05.2021 17:00 14,5 C 14,4 C 12,3 C 97 % 1007,9 hPa 0,0 l/m 0 min 0 min 120 W/m 9,7 km/h (2 Bft) 100,00 %
11.05.2021 17:02 14,5 C 14,4 C 12,3 C 97 % 1008,1 hPa 0,0 l/m 0 min 0 min 107 W/m 3,2 km/h (1 Bft) 100,00 %
11.05.2021 17:04 14,5 C 14,4 C 12,3 C 97 % 1008,1 hPa 0,0 l/m 0 min 0 min 91 W/m 3,2 km/h (1 Bft) 100,00 %
11.05.2021 17:06 14,5 C 14,4 C 12,3 C 97 % 1008,1 hPa 0,0 l/m 0 min 0 min 88 W/m 3,2 km/h (1 Bft) 100,00 %
11.05.2021 17:08 14,5 C 14,4 C 12,3 C 97 % 1008,1 hPa 0,0 l/m 0 min 0 min 84 W/m 6,4 km/h (2 Bft) 100,00 %
11.05.2021 17:10 14,5 C 14,4 C 12,3 C 97 % 1008,1 hPa 0,0 l/m 0 min 0 min 86 W/m 3,2 km/h (1 Bft) 100,00 %
11.05.2021 17:12 14,5 C 14,4 C 12,3 C 97 % 1008,1 hPa 0,0 l/m 0 min 0 min 98 W/m 6,4 km/h (2 Bft) 100,00 %
11.05.2021 17:14 14,5 C 14,4 C 12,3 C 97 % 1008,0 hPa 0,0 l/m 0 min 0 min 117 W/m 9,7 km/h (2 Bft) 100,00 %
11.05.2021 17:16 14,5 C 14,4 C 12,3 C 97 % 1008,0 hPa 0,0 l/m 0 min 0 min 130 W/m 9,7 km/h (2 Bft) 100,00 %
11.05.2021 17:18 14,5 C 14,4 C 12,3 C 97 % 1007,9 hPa 0,0 l/m 0 min 0 min 132 W/m 6,4 km/h (2 Bft) 100,00 %
11.05.2021 17:20 14,5 C 14,4 C 12,3 C 97 % 1008,0 hPa 0,0 l/m 0 min 0 min 140 W/m 6,4 km/h (2 Bft) 100,00 %
11.05.2021 17:22 14,6 C 15,0 C 12,8 C 97 % 1008,0 hPa 0,0 l/m 0 min 0 min 157 W/m 3,2 km/h (1 Bft) 100,00 %
11.05.2021 17:24 14,6 C 15,0 C 12,8 C 97 % 1008,0 hPa 0,0 l/m 0 min 0 min 163 W/m 12,9 km/h (3 Bft) 100,00 %
11.05.2021 17:26 14,6 C 14,4 C 12,3 C 97 % 1008,1 hPa 0,0 l/m 0 min 0 min 162 W/m 6,4 km/h (2 Bft) 100,00 %
11.05.2021 17:28 14,6 C 15,0 C 12,3 C 97 % 1008,1 hPa 0,0 l/m 0 min 0 min 155 W/m 9,7 km/h (2 Bft) 100,00 %
11.05.2021 17:30 14,6 C 15,0 C 12,8 C 97 % 1008,1 hPa 0,0 l/m 0 min 0 min 148 W/m 6,4 km/h (2 Bft) 100,00 %
11.05.2021 17:32 14,6 C 15,0 C 12,8 C 97 % 1008,1 hPa 0,0 l/m 0 min 0 min 143 W/m 9,7 km/h (2 Bft) 97,14 %
11.05.2021 17:34 14,6 C 15,0 C 12,8 C 97 % 1008,2 hPa 0,0 l/m 0 min 0 min 142 W/m 9,7 km/h (2 Bft) 100,00 %
11.05.2021 17:36 14,6 C 15,0 C 12,8 C 97 % 1008,1 hPa 0,0 l/m 0 min 0 min 144 W/m 3,2 km/h (1 Bft) 100,00 %
11.05.2021 17:38 14,7 C 15,0 C 12,8 C 97 % 1008,2 hPa 0,0 l/m 0 min 0 min 145 W/m 3,2 km/h (1 Bft) 100,00 %
11.05.2021 17:40 14,7 C 15,0 C 12,8 C 97 % 1008,1 hPa 0,0 l/m 0 min 0 min 137 W/m 0,0 km/h (0 Bft) 100,00 %
11.05.2021 17:42 14,8 C 14,4 C 12,8 C 97 % 1008,2 hPa 0,0 l/m 0 min 0 min 126 W/m 6,4 km/h (2 Bft) 100,00 %
11.05.2021 17:44 14,8 C 14,4 C 12,8 C 96 % 1008,2 hPa 0,0 l/m 0 min 0 min 112 W/m 6,4 km/h (2 Bft) 97,83 %
11.05.2021 17:46 14,8 C 14,4 C 12,8 C 96 % 1008,3 hPa 0,0 l/m 0 min 0 min 99 W/m 3,2 km/h (1 Bft) 100,00 %
11.05.2021 17:48 14,7 C 14,4 C 12,3 C 96 % 1008,3 hPa 0,0 l/m 0 min 0 min 89 W/m 3,2 km/h (1 Bft) 97,87 %
11.05.2021 17:50 14,7 C 14,4 C 12,3 C 96 % 1008,4 hPa 0,0 l/m 0 min 0 min 84 W/m 3,2 km/h (1 Bft) 100,00 %
11.05.2021 17:52 14,8 C 14,4 C 12,3 C 96 % 1008,3 hPa 0,0 l/m 0 min 0 min 85 W/m 3,2 km/h (1 Bft) 100,00 %
11.05.2021 17:54 14,7 C 14,4 C 12,3 C 96 % 1008,4 hPa 0,0 l/m 0 min 0 min 86 W/m 3,2 km/h (1 Bft) 100,00 %
11.05.2021 17:56 14,8 C 14,4 C 12,3 C 96 % 1008,4 hPa 0,0 l/m 0 min 0 min 84 W/m 3,2 km/h (1 Bft) 97,96 %
11.05.2021 17:58 14,8 C 14,4 C 12,3 C 96 % 1008,4 hPa 0,0 l/m 0 min 0 min 84 W/m 3,2 km/h (1 Bft) 97,87 %
11.05.2021 18:00 14,8 C 14,4 C 12,3 C 96 % 1008,4 hPa 0,0 l/m 0 min 0 min 87 W/m 6,4 km/h (2 Bft) 97,83 %
11.05.2021 18:02 14,8 C 14,4 C 12,3 C 96 % 1008,4 hPa 0,0 l/m 0 min 0 min 89 W/m 3,2 km/h (1 Bft) 97,14 %
11.05.2021 18:04 14,7 C 14,4 C 12,3 C 95 % 1008,4 hPa 0,0 l/m 0 min 0 min 90 W/m 3,2 km/h (1 Bft) 97,87 %
11.05.2021 18:08 14,8 C 14,4 C 12,3 C 95 % 1008,4 hPa 0,0 l/m 0 min 0 min 89 W/m 6,4 km/h (2 Bft) 97,87 %
11.05.2021 18:10 14,8 C 14,4 C 12,3 C 95 % 1008,4 hPa 0,0 l/m 0 min 0 min 84 W/m 6,4 km/h (2 Bft) 97,87 %
11.05.2021 18:12 14,8 C 14,4 C 12,3 C 95 % 1008,4 hPa 0,0 l/m 0 min 0 min 80 W/m 3,2 km/h (1 Bft) 98,11 %
11.05.2021 18:14 14,8 C 14,4 C 12,3 C 95 % 1008,4 hPa 0,0 l/m 0 min 0 min 77 W/m 3,2 km/h (1 Bft) 96,00 %
11.05.2021 18:16 14,8 C 14,4 C 12,3 C 95 % 1008,4 hPa 0,0 l/m 0 min 0 min 76 W/m 3,2 km/h (1 Bft) 93,62 %
11.05.2021 18:18 14,8 C 14,4 C 12,3 C 95 % 1008,4 hPa 0,0 l/m 0 min 0 min 75 W/m 6,4 km/h (2 Bft) 95,92 %
11.05.2021 18:20 14,8 C 14,4 C 12,3 C 95 % 1008,4 hPa 0,0 l/m 0 min 0 min 73 W/m 3,2 km/h (1 Bft) 95,74 %
11.05.2021 18:22 14,8 C 14,4 C 12,3 C 95 % 1008,4 hPa 0,0 l/m 0 min 0 min 70 W/m 3,2 km/h (1 Bft) 94,29 %
11.05.2021 18:24 14,8 C 14,4 C 12,3 C 95 % 1008,4 hPa 0,0 l/m 0 min 0 min 66 W/m 6,4 km/h (2 Bft) 95,74 %
11.05.2021 18:26 14,8 C 14,4 C 12,3 C 95 % 1008,5 hPa 0,0 l/m 0 min 0 min 60 W/m 3,2 km/h (1 Bft) 96,23 %
11.05.2021 18:28 14,8 C 14,4 C 12,3 C 95 % 1008,4 hPa 0,0 l/m 0 min 0 min 57 W/m 3,2 km/h (1 Bft) 96,00 %
11.05.2021 18:30 14,8 C 14,4 C 12,3 C 95 % 1008,5 hPa 0,0 l/m 0 min 0 min 54 W/m 3,2 km/h (1 Bft) 95,65 %
11.05.2021 18:32 14,8 C 14,4 C 12,3 C 95 % 1008,5 hPa 0,0 l/m 0 min 0 min 52 W/m 3,2 km/h (1 Bft) 92,00 %
11.05.2021 18:34 14,8 C 14,4 C 12,3 C 95 % 1008,5 hPa 0,0 l/m 0 min 0 min 50 W/m 6,4 km/h (2 Bft) 95,65 %
11.05.2021 18:36 14,8 C 14,4 C 12,3 C 95 % 1008,5 hPa 0,0 l/m 0 min 0 min 48 W/m 3,2 km/h (1 Bft) 94,44 %
11.05.2021 18:38 14,8 C 14,4 C 12,3 C 95 % 1008,4 hPa 0,0 l/m 0 min 0 min 52 W/m 6,4 km/h (2 Bft) 93,48 %
11.05.2021 18:40 14,8 C 14,4 C 12,3 C 95 % 1008,5 hPa 0,0 l/m 0 min 0 min 56 W/m 3,2 km/h (1 Bft) 95,74 %
11.05.2021 18:42 14,8 C 14,4 C 12,3 C 95 % 1008,4 hPa 0,0 l/m 0 min 0 min 61 W/m 0,0 km/h (0 Bft) 94,34 %
11.05.2021 18:44 14,8 C 14,4 C 12,3 C 95 % 1008,4 hPa 0,0 l/m 0 min 0 min 64 W/m 3,2 km/h (1 Bft) 94,00 %
11.05.2021 18:46 14,8 C 14,4 C 12,3 C 95 % 1008,4 hPa 0,0 l/m 0 min 0 min 67 W/m 6,4 km/h (2 Bft) 97,83 %
11.05.2021 18:48 14,8 C 14,4 C 12,3 C 95 % 1008,4 hPa 0,0 l/m 0 min 0 min 64 W/m 3,2 km/h (1 Bft) 95,74 %
11.05.2021 18:50 14,8 C 14,4 C 12,3 C 95 % 1008,4 hPa 0,0 l/m 0 min 0 min 55 W/m 3,2 km/h (1 Bft) 93,88 %
11.05.2021 18:52 14,8 C 14,4 C 12,3 C 95 % 1008,5 hPa 0,0 l/m 0 min 0 min 52 W/m 3,2 km/h (1 Bft) 97,14 %
11.05.2021 18:54 14,9 C 14,4 C 12,3 C 95 % 1008,5 hPa 0,0 l/m 0 min 0 min 55 W/m 3,2 km/h (1 Bft) 95,74 %
11.05.2021 18:56 14,9 C 14,4 C 12,3 C 95 % 1008,5 hPa 0,0 l/m 0 min 0 min 62 W/m 0,0 km/h (0 Bft) 97,87 %
11.05.2021 18:58 14,9 C 14,4 C 12,3 C 95 % 1008,4 hPa 0,0 l/m 0 min 0 min 69 W/m 3,2 km/h (1 Bft) 98,11 %
11.05.2021 19:00 14,8 C 14,4 C 12,3 C 95 % 1008,5 hPa 0,0 l/m 0 min 0 min 70 W/m 3,2 km/h (1 Bft) 97,87 %
11.05.2021 19:02 14,8 C 14,4 C 12,3 C 95 % 1008,4 hPa 0,0 l/m 0 min 0 min 69 W/m 3,2 km/h (1 Bft) 98,00 %
11.05.2021 19:04 14,8 C 14,4 C 12,3 C 95 % 1008,4 hPa 0,0 l/m 0 min 0 min 68 W/m 3,2 km/h (1 Bft) 97,87 %
11.05.2021 19:06 14,8 C 14,4 C 12,3 C 95 % 1008,4 hPa 0,0 l/m 0 min 0 min 64 W/m 3,2 km/h (1 Bft) 97,83 %
11.05.2021 19:08 14,8 C 14,4 C 12,3 C 95 % 1008,5 hPa 0,0 l/m 0 min 0 min 58 W/m 3,2 km/h (1 Bft) 100,00 %
11.05.2021 19:10 14,9 C 14,4 C 12,3 C 95 % 1008,5 hPa 0,0 l/m 0 min 0 min 51 W/m 3,2 km/h (1 Bft) 100,00 %
11.05.2021 19:12 14,9 C 14,4 C 12,3 C 95 % 1008,6 hPa 0,0 l/m 0 min 0 min 46 W/m 6,4 km/h (2 Bft) 97,87 %
11.05.2021 19:14 15,0 C 14,4 C 12,3 C 95 % 1008,6 hPa 0,0 l/m 0 min 0 min 43 W/m 3,2 km/h (1 Bft) 100,00 %
11.05.2021 19:16 15,0 C 14,4 C 12,3 C 95 % 1008,6 hPa 0,0 l/m 0 min 0 min 40 W/m 3,2 km/h (1 Bft) 100,00 %
11.05.2021 19:18 15,0 C 14,4 C 12,3 C 95 % 1008,6 hPa 0,0 l/m 0 min 0 min 38 W/m 3,2 km/h (1 Bft) 97,87 %
11.05.2021 19:20 15,0 C 14,4 C 12,3 C 95 % 1008,7 hPa 0,0 l/m 0 min 0 min 34 W/m 3,2 km/h (1 Bft) 100,00 %
11.05.2021 19:22 15,0 C 14,4 C 12,3 C 95 % 1008,7 hPa 0,0 l/m 0 min 0 min 33 W/m 3,2 km/h (1 Bft) 100,00 %
11.05.2021 19:24 15,0 C 14,4 C 12,3 C 95 % 1008,6 hPa 0,0 l/m 0 min 0 min 32 W/m 3,2 km/h (1 Bft) 100,00 %
11.05.2021 19:26 15,0 C 14,4 C 12,3 C 95 % 1008,6 hPa 0,0 l/m 0 min 0 min 32 W/m 3,2 km/h (1 Bft) 100,00 %
11.05.2021 19:28 15,0 C 14,4 C 12,3 C 95 % 1008,6 hPa 0,0 l/m 0 min 0 min 32 W/m 0,0 km/h (0 Bft) 100,00 %
11.05.2021 19:30 15,0 C 14,4 C 12,3 C 95 % 1008,6 hPa 0,0 l/m 0 min 0 min 32 W/m 0,0 km/h (0 Bft) 100,00 %
11.05.2021 19:32 15,0 C 14,4 C 12,3 C 94 % 1008,7 hPa 0,0 l/m 0 min 0 min 32 W/m 3,2 km/h (1 Bft) 100,00 %
11.05.2021 19:34 15,0 C 14,4 C 12,3 C 94 % 1008,7 hPa 0,0 l/m 0 min 0 min 32 W/m 3,2 km/h (1 Bft) 100,00 %
11.05.2021 19:36 15,0 C 14,4 C 12,3 C 94 % 1008,7 hPa 0,0 l/m 0 min 0 min 33 W/m 3,2 km/h (1 Bft) 95,74 %
11.05.2021 19:38 15,0 C 14,4 C 12,3 C 94 % 1008,7 hPa 0,0 l/m 0 min 0 min 33 W/m 3,2 km/h (1 Bft) 100,00 %
11.05.2021 19:40 15,0 C 14,4 C 12,3 C 94 % 1008,7 hPa 0,0 l/m 0 min 0 min 32 W/m 3,2 km/h (1 Bft) 100,00 %
11.05.2021 19:42 15,0 C 14,4 C 12,3 C 94 % 1008,7 hPa 0,0 l/m 0 min 0 min 33 W/m 0,0 km/h (0 Bft) 100,00 %
11.05.2021 19:44 15,0 C 14,4 C 12,3 C 94 % 1008,6 hPa 0,0 l/m 0 min 0 min 33 W/m 3,2 km/h (1 Bft) 100,00 %
11.05.2021 19:46 15,0 C 14,4 C 12,3 C 94 % 1008,6 hPa 0,0 l/m 0 min 0 min 33 W/m 0,0 km/h (0 Bft) 100,00 %
11.05.2021 19:48 15,0 C 14,4 C 12,3 C 94 % 1008,6 hPa 0,0 l/m 0 min 0 min 33 W/m 3,2 km/h (1 Bft) 100,00 %
11.05.2021 19:50 15,0 C 14,4 C 12,3 C 94 % 1008,5 hPa 0,0 l/m 0 min 0 min 32 W/m 0,0 km/h (0 Bft) 100,00 %
11.05.2021 19:52 15,0 C 14,4 C 12,3 C 94 % 1008,5 hPa 0,0 l/m 0 min 0 min 30 W/m 3,2 km/h (1 Bft) 100,00 %
11.05.2021 19:54 15,0 C 14,4 C 12,3 C 94 % 1008,5 hPa 0,0 l/m 0 min 0 min 30 W/m 0,0 km/h (0 Bft) 97,87 %
11.05.2021 19:56 15,0 C 14,4 C 12,3 C 94 % 1008,5 hPa 0,0 l/m 0 min 0 min 30 W/m 0,0 km/h (0 Bft) 100,00 %
11.05.2021 19:58 15,0 C 14,4 C 12,3 C 94 % 1008,5 hPa 0,0 l/m 0 min 0 min 29 W/m 0,0 km/h (0 Bft) 100,00 %
11.05.2021 20:00 15,0 C 14,4 C 12,3 C 94 % 1008,5 hPa 0,0 l/m 0 min 0 min 28 W/m 3,2 km/h (1 Bft) 100,00 %
11.05.2021 20:02 15,0 C 14,4 C 12,3 C 94 % 1008,6 hPa 0,0 l/m 0 min 0 min 25 W/m 0,0 km/h (0 Bft) 100,00 %
11.05.2021 20:04 15,0 C 14,4 C 12,3 C 94 % 1008,6 hPa 0,0 l/m 0 min 0 min 22 W/m 0,0 km/h (0 Bft) 100,00 %
11.05.2021 20:06 15,0 C 14,4 C 12,3 C 94 % 1008,7 hPa 0,0 l/m 0 min 0 min 19 W/m 0,0 km/h (0 Bft) 100,00 %
11.05.2021 20:08 15,0 C 13,9 C 12,3 C 94 % 1008,6 hPa 0,0 l/m 0 min 0 min 18 W/m 0,0 km/h (0 Bft) 100,00 %
11.05.2021 20:10 15,0 C 13,9 C 12,3 C 94 % 1008,7 hPa 0,0 l/m 0 min 0 min 18 W/m 0,0 km/h (0 Bft) 100,00 %
11.05.2021 20:12 15,0 C 13,9 C 12,3 C 94 % 1008,7 hPa 0,0 l/m 0 min 0 min 17 W/m 3,2 km/h (1 Bft) 100,00 %
11.05.2021 20:14 15,0 C 13,9 C 12,3 C 94 % 1008,7 hPa 0,0 l/m 0 min 0 min 16 W/m 3,2 km/h (1 Bft) 100,00 %
11.05.2021 20:16 15,0 C 13,9 C 12,3 C 94 % 1008,7 hPa 0,0 l/m 0 min 0 min 15 W/m 0,0 km/h (0 Bft) 97,87 %
11.05.2021 20:18 14,9 C 13,9 C 12,3 C 94 % 1008,7 hPa 0,0 l/m 0 min 0 min 14 W/m 0,0 km/h (0 Bft) 97,87 %
11.05.2021 20:20 14,9 C 13,9 C 12,3 C 94 % 1008,8 hPa 0,0 l/m 0 min 0 min 13 W/m 0,0 km/h (0 Bft) 98,11 %
11.05.2021 20:22 14,9 C 13,9 C 12,3 C 94 % 1008,7 hPa 0,0 l/m 0 min 0 min 12 W/m 0,0 km/h (0 Bft) 100,00 %
11.05.2021 20:24 14,9 C 13,9 C 12,3 C 94 % 1008,8 hPa 0,0 l/m 0 min 0 min 12 W/m 3,2 km/h (1 Bft) 100,00 %
11.05.2021 20:26 14,9 C 13,9 C 12,3 C 94 % 1008,9 hPa 0,0 l/m 0 min 0 min 11 W/m 3,2 km/h (1 Bft) 97,87 %
11.05.2021 20:28 14,9 C 13,9 C 12,3 C 94 % 1008,9 hPa 0,0 l/m 0 min 0 min 11 W/m 0,0 km/h (0 Bft) 97,87 %
11.05.2021 20:30 14,9 C 13,9 C 12,3 C 94 % 1008,9 hPa 0,0 l/m 0 min 0 min 9 W/m 0,0 km/h (0 Bft) 97,96 %
11.05.2021 20:32 14,9 C 13,9 C 12,3 C 94 % 1008,9 hPa 0,0 l/m 0 min 0 min 7 W/m 0,0 km/h (0 Bft) 100,00 %
11.05.2021 20:34 14,9 C 13,9 C 12,3 C 94 % 1009,0 hPa 0,0 l/m 0 min 0 min 7 W/m 0,0 km/h (0 Bft) 97,87 %
11.05.2021 20:36 14,9 C 13,9 C 12,3 C 94 % 1009,1 hPa 0,0 l/m 0 min 0 min 7 W/m 0,0 km/h (0 Bft) 97,87 %
11.05.2021 20:38 14,9 C 13,9 C 12,3 C 95 % 1009,1 hPa 0,0 l/m 0 min 0 min 5 W/m 0,0 km/h (0 Bft) 98,15 %
11.05.2021 20:40 14,8 C 13,9 C 12,3 C 95 % 1009,1 hPa 0,0 l/m 0 min 0 min 5 W/m 0,0 km/h (0 Bft) 95,74 %
11.05.2021 20:42 14,8 C 13,9 C 12,3 C 95 % 1009,2 hPa 0,0 l/m 0 min 0 min 5 W/m 3,2 km/h (1 Bft) 100,00 %
11.05.2021 20:44 14,8 C 13,9 C 12,3 C 95 % 1009,3 hPa 0,0 l/m 0 min 0 min 3 W/m 6,4 km/h (2 Bft) 97,37 %
11.05.2021 20:46 14,7 C 13,9 C 12,3 C 95 % 1009,3 hPa 0,0 l/m 0 min 0 min 0 W/m 6,4 km/h (2 Bft) 100,00 %
11.05.2021 20:48 14,7 C 13,9 C 12,3 C 95 % 1009,3 hPa 0,0 l/m 0 min 0 min 0 W/m 3,2 km/h (1 Bft) 100,00 %
11.05.2021 20:50 14,6 C 13,9 C 12,3 C 94 % 1009,3 hPa 0,0 l/m 0 min 0 min 0 W/m 12,9 km/h (3 Bft) 100,00 %
11.05.2021 20:52 14,6 C 13,9 C 12,3 C 94 % 1009,4 hPa 0,0 l/m 0 min 0 min 0 W/m 3,2 km/h (1 Bft) 97,83 %
11.05.2021 20:54 14,6 C 13,9 C 12,3 C 94 % 1009,4 hPa 0,0 l/m 0 min 0 min 0 W/m 3,2 km/h (1 Bft) 97,96 %
11.05.2021 20:56 14,5 C 13,9 C 12,3 C 94 % 1009,4 hPa 0,0 l/m 0 min 0 min 0 W/m 3,2 km/h (1 Bft) 97,83 %
11.05.2021 20:58 14,5 C 13,9 C 12,3 C 94 % 1009,4 hPa 0,0 l/m 0 min 0 min 0 W/m 3,2 km/h (1 Bft) 100,00 %
11.05.2021 21:00 14,5 C 13,9 C 12,3 C 94 % 1009,4 hPa 0,0 l/m 0 min 0 min 0 W/m 3,2 km/h (1 Bft) 97,87 %
11.05.2021 21:02 14,5 C 13,9 C 11,7 C 94 % 1009,5 hPa 0,0 l/m 0 min 0 min 0 W/m 3,2 km/h (1 Bft) 95,74 %
11.05.2021 21:04 14,5 C 13,9 C 11,7 C 94 % 1009,5 hPa 0,0 l/m 0 min 0 min 0 W/m 3,2 km/h (1 Bft) 95,74 %
11.05.2021 21:06 14,5 C 13,9 C 11,7 C 94 % 1009,6 hPa 0,0 l/m 0 min 0 min 0 W/m 3,2 km/h (1 Bft) 95,65 %
11.05.2021 21:08 14,5 C 13,9 C 11,7 C 94 % 1009,6 hPa 0,0 l/m 0 min 0 min 0 W/m 3,2 km/h (1 Bft) 94,55 %
11.05.2021 21:10 14,4 C 13,9 C 11,7 C 94 % 1009,6 hPa 0,0 l/m 0 min 0 min 0 W/m 3,2 km/h (1 Bft) 95,74 %
11.05.2021 21:12 14,4 C 13,9 C 11,7 C 94 % 1009,7 hPa 0,0 l/m 0 min 0 min 0 W/m 3,2 km/h (1 Bft) 94,74 %
11.05.2021 21:14 14,4 C 13,9 C 11,7 C 94 % 1009,7 hPa 0,0 l/m 0 min 0 min 0 W/m 3,2 km/h (1 Bft) 93,48 %
11.05.2021 21:16 14,4 C 13,9 C 11,7 C 94 % 1009,7 hPa 0,0 l/m 0 min 0 min 0 W/m 3,2 km/h (1 Bft) 93,62 %
11.05.2021 21:18 14,4 C 13,9 C 11,7 C 94 % 1009,6 hPa 0,0 l/m 0 min 0 min 0 W/m 3,2 km/h (1 Bft) 91,49 %
11.05.2021 21:20 14,4 C 13,9 C 11,7 C 94 % 1009,7 hPa 0,0 l/m 0 min 0 min 0 W/m 0,0 km/h (0 Bft) 91,67 %
11.05.2021 21:22 14,4 C 13,9 C 11,7 C 94 % 1009,7 hPa 0,0 l/m 0 min 0 min 0 W/m 3,2 km/h (1 Bft) 91,49 %
11.05.2021 21:24 14,4 C 13,9 C 11,7 C 94 % 1009,7 hPa 0,0 l/m 0 min 0 min 0 W/m 3,2 km/h (1 Bft) 91,49 %
11.05.2021 21:26 14,4 C 13,9 C 11,7 C 94 % 1009,8 hPa 0,0 l/m 0 min 0 min 0 W/m 3,2 km/h (1 Bft) 93,62 %
11.05.2021 21:28 14,4 C 13,9 C 11,7 C 94 % 1009,8 hPa 0,0 l/m 0 min 0 min 0 W/m 3,2 km/h (1 Bft) 91,49 %
11.05.2021 21:30 14,3 C 13,3 C 11,7 C 94 % 1009,8 hPa 0,0 l/m 0 min 0 min 0 W/m 12,9 km/h (3 Bft) 90,74 %
11.05.2021 21:32 14,2 C 13,3 C 11,7 C 94 % 1009,8 hPa 0,0 l/m 0 min 0 min 0 W/m 9,7 km/h (2 Bft) 93,62 %
11.05.2021 21:34 14,2 C 13,3 C 11,7 C 94 % 1009,8 hPa 0,0 l/m 0 min 0 min 0 W/m 6,4 km/h (2 Bft) 95,74 %
11.05.2021 21:36 14,2 C 13,3 C 11,7 C 94 % 1009,9 hPa 0,0 l/m 0 min 0 min 0 W/m 12,9 km/h (3 Bft) 92,11 %
11.05.2021 21:38 14,2 C 13,3 C 11,7 C 94 % 1009,9 hPa 0,0 l/m 0 min 0 min 0 W/m 6,4 km/h (2 Bft) 89,13 %
11.05.2021 21:40 14,2 C 13,3 C 11,7 C 94 % 1009,9 hPa 0,0 l/m 0 min 0 min 0 W/m 6,4 km/h (2 Bft) 95,92 %
11.05.2021 21:42 14,1 C 13,3 C 11,7 C 94 % 1009,9 hPa 0,0 l/m 0 min 0 min 0 W/m 9,7 km/h (2 Bft) 93,48 %
11.05.2021 21:44 14,1 C 13,3 C 11,7 C 94 % 1009,9 hPa 0,0 l/m 0 min 0 min 0 W/m 6,4 km/h (2 Bft) 95,74 %
11.05.2021 21:46 14,1 C 13,3 C 11,7 C 94 % 1010,0 hPa 0,0 l/m 0 min 0 min 0 W/m 6,4 km/h (2 Bft) 91,49 %
11.05.2021 21:48 14,1 C 13,3 C 11,7 C 94 % 1010,0 hPa 0,0 l/m 0 min 0 min 0 W/m 6,4 km/h (2 Bft) 93,62 %
11.05.2021 21:50 14,1 C 13,3 C 11,7 C 94 % 1010,1 hPa 0,0 l/m 0 min 2 min 0 W/m 6,4 km/h (2 Bft) 95,74 %
11.05.2021 21:52 14,1 C 13,3 C 11,1 C 94 % 1010,1 hPa 0,0 l/m 0 min 2 min 0 W/m 6,4 km/h (2 Bft) 97,87 %
11.05.2021 21:54 14,1 C 13,3 C 11,1 C 94 % 1010,1 hPa 0,0 l/m 0 min 2 min 0 W/m 6,4 km/h (2 Bft) 97,83 %
11.05.2021 21:56 14,0 C 13,3 C 11,1 C 94 % 1010,1 hPa 0,0 l/m 0 min 2 min 0 W/m 3,2 km/h (1 Bft) 100,00 %
11.05.2021 21:58 14,0 C 12,8 C 11,1 C 94 % 1010,0 hPa 0,0 l/m 0 min 0 min 0 W/m 3,2 km/h (1 Bft) 97,87 %
11.05.2021 22:00 14,0 C 12,8 C 11,1 C 94 % 1010,0 hPa 0,0 l/m 0 min 0 min 0 W/m 3,2 km/h (1 Bft) 96,30 %
11.05.2021 22:02 14,0 C 12,8 C 11,1 C 95 % 1010,0 hPa 0,0 l/m 0 min 0 min 0 W/m 0,0 km/h (0 Bft) 97,37 %
11.05.2021 22:04 13,9 C 12,8 C 11,1 C 95 % 1010,0 hPa 0,0 l/m 0 min 0 min 0 W/m 0,0 km/h (0 Bft) 95,92 %
11.05.2021 22:06 13,9 C 12,8 C 11,1 C 95 % 1010,0 hPa 0,0 l/m 0 min 0 min 0 W/m 3,2 km/h (1 Bft) 95,65 %
11.05.2021 22:08 13,9 C 12,8 C 11,1 C 95 % 1010,0 hPa 0,0 l/m 0 min 0 min 0 W/m 9,7 km/h (2 Bft) 95,74 %
11.05.2021 22:10 13,8 C 12,8 C 11,1 C 95 % 1010,0 hPa 0,0 l/m 0 min 0 min 0 W/m 3,2 km/h (1 Bft) 97,87 %
11.05.2021 22:12 13,8 C 12,8 C 11,1 C 95 % 1010,0 hPa 0,0 l/m 0 min 0 min 0 W/m 6,4 km/h (2 Bft) 98,15 %
11.05.2021 22:14 13,8 C 12,8 C 11,1 C 95 % 1010,0 hPa 0,0 l/m 0 min 0 min 0 W/m 3,2 km/h (1 Bft) 97,37 %
11.05.2021 22:16 13,7 C 12,8 C 11,1 C 95 % 1010,0 hPa 0,0 l/m 0 min 0 min 0 W/m 3,2 km/h (1 Bft) 95,92 %
11.05.2021 22:18 13,7 C 12,8 C 11,1 C 95 % 1010,0 hPa 0,0 l/m 0 min 0 min 0 W/m 3,2 km/h (1 Bft) 97,83 %
11.05.2021 22:20 13,6 C 12,8 C 11,1 C 95 % 1009,9 hPa 0,0 l/m 0 min 0 min 0 W/m 3,2 km/h (1 Bft) 98,18 %
11.05.2021 22:22 13,6 C 12,8 C 11,1 C 95 % 1009,9 hPa 0,0 l/m 0 min 0 min 0 W/m 3,2 km/h (1 Bft) 97,83 %
11.05.2021 22:24 13,6 C 12,8 C 11,1 C 95 % 1009,9 hPa 0,0 l/m 0 min 0 min 0 W/m 0,0 km/h (0 Bft) 97,37 %
11.05.2021 22:26 13,6 C 12,8 C 11,1 C 95 % 1010,0 hPa 0,0 l/m 0 min 0 min 0 W/m 0,0 km/h (0 Bft) 97,87 %
11.05.2021 22:28 13,6 C 12,8 C 11,1 C 95 % 1010,0 hPa 0,0 l/m 0 min 0 min 0 W/m 0,0 km/h (0 Bft) 97,87 %
11.05.2021 22:30 13,6 C 12,8 C 11,1 C 95 % 1010,0 hPa 0,0 l/m 0 min 0 min 0 W/m 0,0 km/h (0 Bft) 97,87 %
11.05.2021 22:32 13,6 C 12,8 C 11,1 C 95 % 1010,0 hPa 0,0 l/m 0 min 0 min 0 W/m 0,0 km/h (0 Bft) 97,87 %
11.05.2021 22:34 13,6 C 12,8 C 11,1 C 95 % 1010,0 hPa 0,0 l/m 0 min 0 min 0 W/m 0,0 km/h (0 Bft) 97,87 %
11.05.2021 22:36 13,6 C 12,8 C 11,1 C 95 % 1010,0 hPa 0,0 l/m 0 min 0 min 0 W/m 0,0 km/h (0 Bft) 97,83 %
11.05.2021 22:38 13,6 C 12,8 C 11,1 C 95 % 1010,0 hPa 0,0 l/m 0 min 0 min 0 W/m 3,2 km/h (1 Bft) 97,96 %
11.05.2021 22:40 13,5 C 12,8 C 11,1 C 95 % 1010,0 hPa 0,0 l/m 0 min 0 min 0 W/m 0,0 km/h (0 Bft) 95,65 %
11.05.2021 22:42 13,5 C 12,8 C 11,1 C 95 % 1010,1 hPa 0,0 l/m 0 min 0 min 0 W/m 0,0 km/h (0 Bft) 97,87 %
11.05.2021 22:44 13,5 C 12,8 C 11,1 C 95 % 1010,1 hPa 0,0 l/m 0 min 0 min 0 W/m 0,0 km/h (0 Bft) 95,74 %
11.05.2021 22:46 13,5 C 12,8 C 11,1 C 95 % 1010,1 hPa 0,0 l/m 0 min 0 min 0 W/m 3,2 km/h (1 Bft) 97,87 %
11.05.2021 22:48 13,5 C 12,8 C 11,1 C 95 % 1010,1 hPa 0,0 l/m 0 min 0 min 0 W/m 0,0 km/h (0 Bft) 98,15 %
11.05.2021 22:50 13,5 C 12,8 C 11,1 C 95 % 1010,1 hPa 0,0 l/m 0 min 0 min 0 W/m 0,0 km/h (0 Bft) 97,37 %
11.05.2021 22:52 13,5 C 12,8 C 11,1 C 95 % 1010,3 hPa 0,0 l/m 0 min 0 min 0 W/m 3,2 km/h (1 Bft) 97,87 %
11.05.2021 22:54 13,4 C 12,8 C 11,1 C 95 % 1010,2 hPa 0,0 l/m 0 min 0 min 0 W/m 6,4 km/h (2 Bft) 97,87 %
11.05.2021 22:56 13,4 C 12,8 C 11,1 C 95 % 1010,2 hPa 0,0 l/m 0 min 0 min 0 W/m 6,4 km/h (2 Bft) 97,87 %
11.05.2021 22:58 13,4 C 12,8 C 11,1 C 95 % 1010,2 hPa 0,0 l/m 0 min 0 min 0 W/m 16,1 km/h (3 Bft) 95,74 %
11.05.2021 23:00 13,4 C 12,8 C 11,1 C 95 % 1010,3 hPa 0,0 l/m 0 min 0 min 0 W/m 3,2 km/h (1 Bft) 97,83 %
11.05.2021 23:02 13,4 C 12,8 C 11,1 C 95 % 1010,3 hPa 0,0 l/m 0 min 0 min 0 W/m 6,4 km/h (2 Bft) 97,96 %
11.05.2021 23:04 13,3 C 12,8 C 11,1 C 96 % 1010,3 hPa 0,0 l/m 0 min 0 min 0 W/m 6,4 km/h (2 Bft) 97,83 %
11.05.2021 23:06 13,3 C 12,8 C 11,1 C 95 % 1010,3 hPa 0,0 l/m 0 min 0 min 0 W/m 12,9 km/h (3 Bft) 95,74 %
11.05.2021 23:08 13,2 C 12,2 C 11,1 C 95 % 1010,2 hPa 0,0 l/m 0 min 2 min 0 W/m 9,7 km/h (2 Bft) 96,43 %
11.05.2021 23:10 13,2 C 12,2 C 11,1 C 95 % 1010,2 hPa 0,0 l/m 0 min 0 min 0 W/m 3,2 km/h (1 Bft) 100,00 %
11.05.2021 23:12 13,1 C 12,2 C 11,1 C 95 % 1010,3 hPa 0,0 l/m 0 min 0 min 0 W/m 6,4 km/h (2 Bft) 100,00 %
11.05.2021 23:14 13,1 C 12,2 C 11,1 C 95 % 1010,3 hPa 0,0 l/m 0 min 0 min 0 W/m 12,9 km/h (3 Bft) 100,00 %
11.05.2021 23:16 13,1 C 12,2 C 11,1 C 96 % 1010,3 hPa 0,0 l/m 0 min 0 min 0 W/m 6,4 km/h (2 Bft) 95,74 %
11.05.2021 23:18 13,1 C 12,2 C 11,1 C 96 % 1010,3 hPa 0,0 l/m 0 min 0 min 0 W/m 6,4 km/h (2 Bft) 100,00 %
11.05.2021 23:20 13,1 C 12,2 C 11,1 C 96 % 1010,3 hPa 0,0 l/m 0 min 0 min 0 W/m 9,7 km/h (2 Bft) 100,00 %
11.05.2021 23:22 13,0 C 12,2 C 11,1 C 96 % 1010,3 hPa 0,0 l/m 0 min 0 min 0 W/m 6,4 km/h (2 Bft) 100,00 %
11.05.2021 23:24 13,0 C 12,2 C 11,1 C 96 % 1010,3 hPa 0,0 l/m 0 min 0 min 0 W/m 6,4 km/h (2 Bft) 100,00 %
11.05.2021 23:26 13,0 C 12,2 C 11,1 C 96 % 1010,3 hPa 0,0 l/m 0 min 0 min 0 W/m 9,7 km/h (2 Bft) 97,83 %
11.05.2021 23:28 13,0 C 12,2 C 11,1 C 96 % 1010,3 hPa 0,0 l/m 0 min 0 min 0 W/m 9,7 km/h (2 Bft) 100,00 %
11.05.2021 23:30 13,0 C 12,2 C 11,1 C 96 % 1010,3 hPa 0,0 l/m 0 min 0 min 0 W/m 6,4 km/h (2 Bft) 100,00 %
11.05.2021 23:32 13,0 C 12,2 C 11,1 C 96 % 1010,4 hPa 0,0 l/m 0 min 0 min 0 W/m 6,4 km/h (2 Bft) 100,00 %
11.05.2021 23:34 13,0 C 12,2 C 11,1 C 96 % 1010,4 hPa 0,0 l/m 0 min 0 min 0 W/m 3,2 km/h (1 Bft) 98,15 %
11.05.2021 23:36 13,0 C 12,2 C 11,1 C 96 % 1010,4 hPa 0,0 l/m 0 min 2 min 0 W/m 6,4 km/h (2 Bft) 95,74 %
11.05.2021 23:38 12,9 C 12,2 C 11,1 C 96 % 1010,3 hPa 0,0 l/m 0 min 0 min 0 W/m 6,4 km/h (2 Bft) 97,87 %
11.05.2021 23:40 12,9 C 12,2 C 11,1 C 96 % 1010,3 hPa 0,0 l/m 0 min 0 min 0 W/m 3,2 km/h (1 Bft) 100,00 %
11.05.2021 23:42 12,9 C 12,2 C 11,1 C 96 % 1010,3 hPa 0,0 l/m 0 min 0 min 0 W/m 3,2 km/h (1 Bft) 100,00 %
11.05.2021 23:44 12,9 C 12,2 C 11,1 C 96 % 1010,4 hPa 0,0 l/m 0 min 0 min 0 W/m 6,4 km/h (2 Bft) 100,00 %
11.05.2021 23:46 12,9 C 12,2 C 11,1 C 96 % 1010,4 hPa 0,0 l/m 0 min 0 min 0 W/m 3,2 km/h (1 Bft) 97,92 %
11.05.2021 23:48 12,8 C 12,2 C 11,1 C 96 % 1010,4 hPa 0,0 l/m 0 min 0 min 0 W/m 6,4 km/h (2 Bft) 95,74 %
11.05.2021 23:50 12,8 C 12,2 C 11,1 C 96 % 1010,4 hPa 0,0 l/m 0 min 0 min 0 W/m 3,2 km/h (1 Bft) 97,83 %
11.05.2021 23:52 12,8 C 12,2 C 11,1 C 96 % 1010,4 hPa 0,0 l/m 0 min 0 min 0 W/m 3,2 km/h (1 Bft) 97,87 %
11.05.2021 23:54 12,8 C 12,2 C 11,1 C 96 % 1010,3 hPa 0,0 l/m 0 min 2 min 0 W/m 3,2 km/h (1 Bft) 95,74 %
11.05.2021 23:56 12,8 C 12,2 C 11,1 C 96 % 1010,3 hPa 0,0 l/m 0 min 0 min 0 W/m 3,2 km/h (1 Bft) 97,87 %
11.05.2021 23:58 12,8 C 12,2 C 11,1 C 95 % 1010,3 hPa 0,0 l/m 0 min 2 min 0 W/m 3,2 km/h (1 Bft) 97,87 %
_ Min-Zeit 23:48 03:28 02:48 12:18 13:04 - - - - 00:00 05:52
Minimum _ 12,8 C 12,2 C 10,0 C 76 % 1007,4 hPa - - - - 0,0 km/h (0 Bft) 58,14 %
_ Max-Zeit 12:14 11:54 12:00 08:00 23:32 02:58 12:08 02:16 12:00 12:12 00:00
Maximum _ 18,3 C 21,7 C 21,7 C 98 % 1010,4 hPa 0,2 l/m 4 min 2 min 1060 W/m 16,1 km/h
N-NW (3 Bft)
100,00 %
Durchschnitt _ 14,5 C 14,0 C 12,1 C 92 % 1008,6 hPa #6,0 l/m #1:22 h #4:40 h 140 W/m 4,9 km/h (1 Bft) 97,54 %
© 2021 W. Hausmann